MENDUMS POND: From 05/23/2018 00:00 to 07/24/2018 00:00

Date LAKE ELEVATION [FT] PRECIPITATION INCREMENT [IN] WATER TEMPERATURE [F] PRECIPITATION TOTAL [IN] AIR TEMPERATURE [F] RESERVOIR RELEASE [CFS]
07/22/2018 17:00 -- -- -- -- -- 0.0
07/22/2018 16:00 224.51 0.00 52.6 -- 67.2 0.0
07/22/2018 15:00 224.51 0.02 52.5 -- 65.6 0.0
07/22/2018 14:00 224.51 0.02 52.4 -- 64.4 0.0
07/22/2018 13:00 224.51 0.02 52.6 -- 63.6 0.0
07/22/2018 12:00 224.50 0.04 52.7 -- 62.6 0.0
07/22/2018 11:00 224.51 0.01 52.5 -- 62.7 0.0
07/22/2018 10:00 224.50 0.04 52.3 -- 62.7 0.0
07/22/2018 09:00 224.51 0.00 52.4 -- 62.5 0.0
07/22/2018 08:00 224.50 0.00 52.8 -- 62.9 0.0
07/22/2018 07:00 224.50 0.00 52.3 -- 61.9 0.0
07/22/2018 06:00 224.50 0.00 52.3 -- 61.5 0.0
07/22/2018 05:00 224.50 0.00 52.4 -- 61.7 0.0
07/22/2018 04:00 224.50 0.00 52.7 -- 61.1 0.0
07/22/2018 03:00 224.50 0.00 52.6 -- 61.1 0.0
07/22/2018 02:00 224.51 0.00 52.4 -- 61.5 0.0
07/22/2018 01:00 224.50 0.00 51.9 -- 61.6 0.0
07/22/2018 00:00 224.50 0.00 52.6 -- 61.5 0.0
07/21/2018 23:00 224.50 0.00 52.3 -- 61.1 0.0
07/21/2018 22:00 224.50 0.00 53.0 -- 64.5 0.0
07/21/2018 21:00 224.50 0.00 52.1 -- 66.0 0.0
07/21/2018 20:00 224.50 0.00 52.0 -- 69.5 0.0
07/21/2018 19:00 224.50 0.00 52.3 -- 74.8 0.0
07/21/2018 18:00 224.51 0.00 52.1 -- 75.1 0.0
07/21/2018 17:00 224.51 0.00 52.3 -- 76.3 0.0
07/21/2018 16:00 224.51 0.00 52.5 -- 75.4 0.0
07/21/2018 15:00 224.51 0.00 52.5 -- 75.8 0.0
07/21/2018 14:00 224.51 0.00 52.0 -- 75.2 0.0
07/21/2018 13:00 224.51 0.00 52.2 -- 74.5 0.0
07/21/2018 12:00 224.51 0.00 52.5 -- 75.2 0.0
07/21/2018 11:00 224.51 0.00 52.2 -- 72.0 0.0
07/21/2018 10:00 224.52 0.00 52.0 -- 67.7 0.0
07/21/2018 09:00 224.51 0.00 52.0 -- 63.0 0.0
07/21/2018 08:00 224.52 0.00 52.2 -- 56.3 0.0
07/21/2018 07:00 224.52 0.00 52.5 -- 55.0 0.0
07/21/2018 06:00 224.52 0.00 52.2 -- 54.0 0.0
07/21/2018 05:00 224.52 0.00 51.8 -- 54.5 0.0
07/21/2018 04:00 224.52 0.00 52.2 -- 54.9 0.0
07/21/2018 03:00 224.52 0.00 52.0 -- 55.6 0.0
07/21/2018 02:00 224.52 0.00 52.0 -- 56.1 0.0
07/21/2018 01:00 224.52 0.00 52.0 -- 57.0 0.0
07/21/2018 00:00 224.52 0.00 52.3 0.00 58.3 0.0
07/20/2018 23:00 224.52 0.00 52.2 -- 60.5 0.0
07/20/2018 22:00 224.52 0.00 51.8 -- 63.8 0.0
07/20/2018 21:00 224.52 0.00 51.9 -- 69.5 0.0
07/20/2018 20:00 224.52 0.00 52.1 -- 76.9 0.0
07/20/2018 19:00 224.52 0.00 52.4 -- 78.6 0.0
07/20/2018 18:00 224.53 0.00 51.8 -- 80.0 0.0
07/20/2018 17:00 224.52 0.00 52.0 -- 81.8 0.3
07/20/2018 16:00 224.52 0.00 52.3 -- 82.3 0.0
07/20/2018 15:00 224.52 0.00 52.0 -- 83.0 0.5
07/20/2018 14:00 224.53 0.00 52.1 -- 82.0 47.5
07/20/2018 13:00 225.37 0.00 52.1 -- 82.1 94.0
07/20/2018 12:00 225.37 0.00 51.5 -- 81.8 94.0
07/20/2018 11:00 225.37 0.00 52.2 -- 75.0 94.0
07/20/2018 10:00 225.37 0.00 52.1 -- 73.0 94.3
07/20/2018 09:00 225.37 0.00 52.0 -- 62.4 94.0
07/20/2018 08:00 225.37 0.00 51.9 -- 54.7 94.3
07/20/2018 07:00 225.37 0.00 52.0 -- 52.3 94.3
07/20/2018 06:00 225.37 0.00 51.7 -- 52.5 94.3
07/20/2018 05:00 225.37 0.00 52.2 -- 53.4 94.0
07/20/2018 04:00 225.37 0.00 51.7 -- 53.9 95.0
07/20/2018 03:00 225.37 0.00 51.8 -- 54.5 95.0
07/20/2018 02:00 225.37 0.00 52.0 -- 55.7 95.0
07/20/2018 01:00 225.37 0.00 52.0 -- 56.5 95.0
07/20/2018 00:00 225.37 0.00 52.1 0.00 58.0 95.0
07/19/2018 23:00 225.37 0.00 52.2 -- 60.1 95.0
07/19/2018 22:00 225.38 0.00 51.6 -- 62.9 95.5
07/19/2018 21:00 225.37 0.00 52.0 -- 68.9 95.3
07/19/2018 20:00 225.38 0.00 52.0 -- 76.4 95.8
07/19/2018 19:00 225.38 0.00 51.8 -- 77.2 95.8
07/19/2018 18:00 225.38 0.00 52.3 -- 79.8 96.0
07/19/2018 17:00 225.38 0.00 52.2 -- 82.7 95.8
07/19/2018 16:00 225.38 0.00 51.6 -- 82.3 96.8
07/19/2018 15:00 225.38 0.00 52.0 -- 78.4 96.5
07/19/2018 14:00 225.38 0.00 51.8 -- 81.0 96.3
07/19/2018 13:00 225.38 0.00 51.9 -- 74.4 96.8
07/19/2018 12:00 225.38 0.00 52.0 -- 77.7 96.8
07/19/2018 11:00 225.38 0.00 52.0 -- 75.0 97.0
07/19/2018 10:00 225.39 0.00 51.8 -- 70.3 97.0
07/19/2018 09:00 225.38 0.00 51.6 -- 61.3 97.3
07/19/2018 08:00 225.39 0.00 51.6 -- 53.5 97.3
07/19/2018 07:00 225.39 0.00 51.9 -- 50.0 97.5
07/19/2018 06:00 225.39 0.00 51.9 -- 50.1 97.8
07/19/2018 05:00 225.39 0.00 51.9 -- 50.8 97.5
07/19/2018 04:00 225.39 0.00 51.8 -- 51.6 97.8
07/19/2018 03:00 225.39 0.00 51.6 -- 52.8 98.0
07/19/2018 02:00 225.39 0.00 51.8 -- 54.1 98.0
07/19/2018 01:00 225.39 0.00 51.4 -- 55.8 98.0
07/19/2018 00:00 225.39 0.00 51.5 0.00 58.6 98.5
07/18/2018 23:00 225.39 0.00 51.5 -- 60.1 98.8
07/18/2018 22:00 225.39 0.00 51.6 -- 63.1 99.0
07/18/2018 21:00 225.39 0.00 51.7 -- 69.1 99.0
07/18/2018 20:00 225.40 0.00 51.7 -- 78.3 99.0
07/18/2018 19:00 225.39 0.00 51.2 -- 78.3 98.3
07/18/2018 18:00 225.40 0.00 52.3 -- 78.3 99.8
07/18/2018 17:00 225.40 0.00 51.8 -- 77.8 98.3
07/18/2018 16:00 225.40 0.00 51.4 -- 77.0 49.8
07/18/2018 15:00 224.48 0.00 51.9 -- 76.7 0.0
07/18/2018 14:00 224.48 0.00 51.8 -- 76.4 0.0
07/18/2018 13:00 224.50 0.00 51.6 -- 75.6 0.0
07/18/2018 12:00 224.48 0.00 51.6 -- 73.5 0.0
07/18/2018 11:00 224.50 0.00 51.2 -- 70.4 0.0
07/18/2018 10:00 224.49 0.00 51.5 -- 69.7 0.0
07/18/2018 09:00 224.49 0.00 51.2 -- 67.0 0.0
07/18/2018 08:00 224.49 0.00 51.3 -- 64.4 0.0
07/18/2018 07:00 224.49 0.00 51.4 -- 65.0 0.0
07/18/2018 06:00 224.49 0.00 51.3 -- 66.9 0.0
07/18/2018 05:00 224.49 0.00 51.5 -- 66.6 0.0
07/18/2018 04:00 224.49 0.00 51.1 -- 67.2 0.0
07/18/2018 03:00 224.49 0.00 50.9 -- 67.8 0.0
07/18/2018 02:00 224.49 0.00 51.5 -- 68.8 0.0
07/18/2018 01:00 224.49 0.00 51.3 -- 68.9 0.0
07/18/2018 00:00 224.49 0.01 51.4 0.00 69.3 0.0
07/17/2018 23:00 224.49 0.03 51.0 -- 69.1 0.0
07/17/2018 22:00 224.49 0.00 51.5 -- 69.3 0.0
07/17/2018 21:00 224.49 0.00 51.3 -- 69.2 0.0
07/17/2018 20:00 224.49 0.11 51.8 -- 69.0 0.0
07/17/2018 19:00 224.48 0.11 51.1 -- 69.2 0.0
07/17/2018 18:00 224.46 0.13 51.7 -- 68.8 0.0
07/17/2018 17:00 224.46 0.12 51.3 -- 68.8 0.0
07/17/2018 16:00 224.44 0.16 51.5 -- 68.5 0.0
07/17/2018 15:00 224.42 0.09 52.3 -- 68.4 0.0
07/17/2018 14:00 224.46 0.54 51.4 -- 68.4 0.0
07/17/2018 13:00 224.34 0.45 51.6 -- 69.2 0.0
07/17/2018 12:00 224.34 0.00 51.6 -- 82.5 0.0
07/17/2018 11:00 224.34 0.00 51.7 -- 80.2 0.0
07/17/2018 10:00 224.34 0.00 51.7 -- 77.4 0.0
07/17/2018 09:00 224.34 0.00 51.7 -- 76.6 0.0
07/17/2018 08:00 224.34 0.00 51.7 -- 75.8 0.0
07/17/2018 07:00 224.34 0.00 51.7 -- 75.0 0.0
07/17/2018 06:00 224.34 0.00 51.7 -- 74.3 0.0
07/17/2018 05:00 224.34 0.00 51.7 -- 73.5 0.0
07/17/2018 04:00 224.34 0.00 51.6 -- 72.7 0.0
07/17/2018 03:00 224.34 0.00 51.6 -- 72.0 0.0
07/17/2018 02:00 224.34 0.00 51.6 -- 71.2 0.0
07/17/2018 01:00 224.34 0.00 51.6 -- 70.4 0.0
07/17/2018 00:00 224.34 0.00 51.6 1.75 69.7 0.0
07/16/2018 23:00 224.34 0.00 51.6 -- 68.9 0.0
07/16/2018 22:00 224.34 0.00 51.6 -- 69.5 0.0
07/16/2018 21:00 224.34 0.00 51.3 -- 72.4 0.0
07/16/2018 20:00 224.34 0.00 51.3 -- 77.9 0.0
07/16/2018 19:00 224.34 0.00 51.9 -- 81.1 0.0
07/16/2018 18:00 224.34 0.00 51.8 -- 82.6 0.0
07/16/2018 17:00 224.35 0.00 51.3 -- 85.3 0.0
07/16/2018 16:00 224.35 0.00 51.3 -- 84.7 0.0
07/16/2018 15:00 224.35 0.00 51.4 -- 84.6 0.0
07/16/2018 14:00 224.34 0.00 51.8 -- 81.4 0.0
07/16/2018 13:00 224.34 0.00 51.5 -- 78.2 0.0
07/16/2018 12:00 224.34 0.00 51.5 -- 72.9 0.0
07/16/2018 11:00 224.35 0.00 51.3 -- 70.6 0.0
07/16/2018 10:00 224.35 0.00 51.4 -- 67.9 0.0
07/16/2018 09:00 224.35 0.00 51.5 -- 66.0 0.0
07/16/2018 08:00 224.35 0.00 51.3 -- 63.8 0.0
07/16/2018 07:00 224.34 0.00 51.5 -- 61.8 0.0
07/16/2018 06:00 224.35 0.00 51.2 -- 61.2 0.0
07/16/2018 05:00 224.35 0.00 51.3 -- 61.0 0.0
07/16/2018 04:00 224.35 0.00 51.5 -- 61.3 0.0
07/16/2018 03:00 224.35 0.00 51.3 -- 62.5 0.0
07/16/2018 02:00 224.35 0.00 51.4 -- 64.4 0.0
07/16/2018 01:00 224.35 0.00 51.5 -- 63.6 0.0
07/16/2018 00:00 224.35 0.00 51.5 0.00 64.6 0.0
07/15/2018 23:00 224.34 0.00 51.4 -- 66.2 0.0
07/15/2018 22:00 224.35 0.00 51.3 -- 67.3 0.0
07/15/2018 21:00 224.35 0.00 51.4 -- 70.1 0.0
07/15/2018 20:00 224.35 0.00 51.4 -- 75.6 0.0
07/15/2018 19:00 224.35 0.00 51.3 -- 78.8 0.0
07/15/2018 18:00 224.35 0.00 51.5 -- 81.5 0.0
07/15/2018 17:00 224.36 0.01 51.3 -- 75.6 0.0
07/15/2018 16:00 224.35 0.00 51.1 -- 80.0 0.0
07/15/2018 15:00 224.35 0.00 51.4 -- 78.3 0.0
07/15/2018 14:00 224.35 0.00 51.4 -- 75.7 0.0
07/15/2018 13:00 224.35 0.00 51.4 -- 72.2 0.0
07/15/2018 12:00 224.35 0.00 51.2 -- 69.8 0.0
07/15/2018 11:00 224.35 0.00 51.1 -- 69.8 0.0
07/15/2018 10:00 224.35 0.00 51.1 -- 67.9 0.0
07/15/2018 09:00 224.35 0.00 51.2 -- 64.5 0.0
07/15/2018 08:00 224.35 0.00 51.1 -- 63.2 0.0
07/15/2018 07:00 224.35 0.00 51.1 -- 62.4 0.0
07/15/2018 06:00 224.35 0.04 51.0 -- 62.5 0.0
07/15/2018 05:00 224.35 0.46 51.3 -- 61.9 0.0
07/15/2018 04:00 224.30 0.00 51.1 -- 63.6 0.0
07/15/2018 03:00 224.30 0.00 51.2 -- 64.1 0.0
07/15/2018 02:00 224.31 0.00 51.2 -- 64.2 0.0
07/15/2018 01:00 224.30 0.00 50.8 -- 64.3 0.0
07/15/2018 00:00 224.30 0.00 51.3 0.51 64.5 0.0
07/14/2018 23:00 224.31 0.00 51.0 -- 65.3 0.0
07/14/2018 22:00 224.31 0.00 51.1 -- 66.0 0.0
07/14/2018 21:00 224.30 0.00 51.2 -- 67.9 0.0
07/14/2018 20:00 224.31 0.00 51.5 -- 68.0 0.0
07/14/2018 19:00 224.30 0.00 51.3 -- 70.1 0.0
07/14/2018 18:00 224.31 0.00 51.1 -- 72.1 0.0
07/14/2018 17:00 224.31 0.00 51.3 -- 73.3 0.0
07/14/2018 16:00 224.32 0.00 51.2 -- 75.0 0.0
07/14/2018 15:00 224.31 0.00 51.2 -- 76.0 0.0
07/14/2018 14:00 224.31 0.00 51.2 -- 75.8 0.0
07/14/2018 13:00 224.32 0.00 51.2 -- 73.5 0.0
07/14/2018 12:00 224.31 0.00 51.3 -- 74.0 0.0
07/14/2018 11:00 224.31 0.00 51.1 -- 69.0 0.0
07/14/2018 10:00 224.31 0.00 51.1 -- 67.1 0.0
07/14/2018 09:00 224.31 0.00 51.3 -- 63.3 0.0
07/14/2018 08:00 224.32 0.00 51.2 -- 60.8 0.0
07/14/2018 07:00 224.32 0.00 51.3 -- 57.8 0.0
07/14/2018 06:00 224.32 0.00 51.0 -- 57.8 0.0
07/14/2018 05:00 224.32 0.00 51.3 -- 56.8 0.0
07/14/2018 04:00 224.32 0.00 51.1 -- 58.3 0.0
07/14/2018 03:00 224.32 0.00 51.2 -- 58.6 0.0
07/14/2018 02:00 224.32 0.00 50.9 -- 58.1 0.0
07/14/2018 01:00 224.32 0.00 51.3 -- 59.4 0.0
07/14/2018 00:00 224.32 0.00 51.3 0.00 62.0 0.0
07/13/2018 23:00 224.32 0.00 51.1 -- 64.1 0.0
07/13/2018 22:00 224.32 0.00 51.2 -- 65.9 0.0
07/13/2018 21:00 224.32 0.00 51.1 -- 67.7 0.0
07/13/2018 20:00 224.32 0.00 51.2 -- 70.5 0.0
07/13/2018 19:00 224.32 0.00 51.6 -- 72.9 0.0
07/13/2018 18:00 224.33 0.00 50.8 -- 75.7 0.0
07/13/2018 17:00 224.33 0.00 50.8 -- 77.6 0.0
07/13/2018 16:00 224.33 0.00 50.9 -- 79.0 0.0
07/13/2018 15:00 224.33 0.00 51.1 -- 81.4 0.0
07/13/2018 14:00 224.33 0.00 51.1 -- 79.3 0.0
07/13/2018 13:00 224.33 0.00 51.1 -- 77.2 0.0
07/13/2018 12:00 224.33 0.00 51.1 -- 75.1 0.0
07/13/2018 11:00 224.33 0.00 51.1 -- 73.0 0.0
07/13/2018 10:00 224.33 0.00 51.2 -- 70.1 0.0
07/13/2018 09:00 224.33 0.00 50.8 -- 64.3 0.0
07/13/2018 08:00 224.33 0.00 50.8 -- 58.5 0.0
07/13/2018 07:00 224.33 0.00 50.9 -- 56.4 0.0
07/13/2018 06:00 224.33 0.00 50.9 -- 55.5 0.0
07/13/2018 05:00 224.34 0.00 50.9 -- 55.2 0.0
07/13/2018 04:00 224.33 0.00 51.0 -- 56.2 0.0
07/13/2018 03:00 224.33 0.00 50.8 -- 57.9 0.0
07/13/2018 02:00 224.33 0.00 50.7 -- 59.2 0.0
07/13/2018 01:00 224.34 0.00 51.1 -- 62.5 0.0
07/13/2018 00:00 224.34 0.00 50.9 0.00 63.9 0.0
07/12/2018 23:00 224.34 0.00 50.8 -- 64.5 0.0
07/12/2018 22:00 224.34 0.00 51.2 -- 66.5 0.0
07/12/2018 21:00 224.33 0.00 51.1 -- 71.4 0.0
07/12/2018 20:00 224.34 0.00 50.9 -- 75.2 0.0
07/12/2018 19:00 224.35 0.00 50.8 -- 77.1 0.0
07/12/2018 18:00 224.34 0.00 51.0 -- 77.8 0.0
07/12/2018 17:00 224.35 0.00 51.3 -- 77.2 0.0
07/12/2018 16:00 224.35 0.00 51.0 -- 79.4 0.0
07/12/2018 15:00 224.34 0.00 50.9 -- 77.1 0.0
07/12/2018 14:00 224.35 0.00 51.3 -- 80.0 0.0
07/12/2018 13:00 224.35 0.00 51.0 -- 76.7 0.0
07/12/2018 12:00 224.35 0.00 51.2 -- 77.7 0.0
07/12/2018 11:00 224.35 0.00 51.0 -- 74.2 0.0
07/12/2018 10:00 224.35 0.00 51.1 -- 70.7 0.0
07/12/2018 09:00 224.35 0.00 50.9 -- 65.9 0.0
07/12/2018 08:00 224.35 0.00 51.5 -- 55.3 0.0
07/12/2018 07:00 224.35 0.00 51.1 -- 52.4 0.0
07/12/2018 06:00 224.35 0.00 51.2 -- 52.3 0.0
07/12/2018 05:00 224.35 0.00 50.7 -- 53.1 0.0
07/12/2018 04:00 224.35 0.00 51.3 -- 54.2 0.0
07/12/2018 03:00 224.36 0.00 51.1 -- 55.1 0.0
07/12/2018 02:00 224.36 0.00 51.0 -- 56.4 0.0
07/12/2018 01:00 224.35 0.00 50.9 -- 57.9 0.0
07/12/2018 00:00 224.36 0.00 51.1 0.00 59.1 0.0
07/11/2018 23:00 224.36 0.00 50.9 -- 61.5 0.0
07/11/2018 22:00 224.36 0.00 51.0 -- 63.3 0.0
07/11/2018 21:00 224.36 0.00 51.2 -- 71.2 0.0
07/11/2018 20:00 224.36 0.00 51.2 -- 74.2 0.0
07/11/2018 19:00 224.36 0.00 51.1 -- 75.7 0.0
07/11/2018 18:00 224.36 0.00 51.2 -- 76.1 0.0
07/11/2018 17:00 224.36 0.00 50.7 -- 77.3 0.0
07/11/2018 16:00 224.36 0.00 51.2 -- 79.4 0.0
07/11/2018 15:00 224.37 0.00 50.8 -- 77.3 0.0
07/11/2018 14:00 224.36 0.00 51.0 -- 76.0 0.0
07/11/2018 13:00 224.37 0.00 51.1 -- 75.1 0.0
07/11/2018 12:00 224.36 0.00 51.1 -- 74.8 0.0
07/11/2018 11:00 224.38 0.00 51.1 -- 72.8 0.0
07/11/2018 10:00 224.38 0.00 50.7 -- 71.6 0.0
07/11/2018 09:00 224.37 0.00 50.9 -- 68.1 0.0
07/11/2018 08:00 224.37 0.00 51.1 -- 63.3 0.0
07/11/2018 07:00 224.37 0.00 51.1 -- 61.6 0.0
07/11/2018 06:00 224.37 0.00 50.5 -- 62.7 0.0
07/11/2018 05:00 224.37 0.00 50.8 -- 63.9 0.0
07/11/2018 04:00 224.37 0.00 51.0 -- 64.0 0.0
07/11/2018 03:00 224.38 0.00 50.9 -- 65.0 0.0
07/11/2018 02:00 224.37 0.00 51.2 -- 66.3 0.0
07/11/2018 01:00 224.37 0.00 50.8 -- 66.5 0.0
07/11/2018 00:00 224.37 0.00 50.4 0.00 67.2 0.0
07/10/2018 23:00 224.37 0.00 51.1 -- 69.5 0.0
07/10/2018 22:00 224.39 0.01 50.5 -- 70.3 0.0
07/10/2018 21:00 224.37 0.00 51.0 -- 72.3 0.0
07/10/2018 20:00 224.37 0.04 51.2 -- 71.8 0.0
07/10/2018 19:00 224.37 0.00 50.7 -- 86.3 0.0
07/10/2018 18:00 224.37 0.00 50.5 -- 90.5 0.0
07/10/2018 17:00 224.37 0.00 50.6 -- 93.8 0.0
07/10/2018 16:00 224.38 0.00 50.8 -- 91.1 0.0
07/10/2018 15:00 224.37 0.00 50.7 -- 91.5 0.0
07/10/2018 14:00 224.37 0.00 50.5 -- 91.6 0.0
07/10/2018 13:00 224.37 0.00 50.8 -- 86.8 0.0
07/10/2018 12:00 224.38 0.00 50.7 -- 84.8 0.0
07/10/2018 11:00 224.37 0.00 50.8 -- 82.6 0.0
07/10/2018 10:00 224.37 0.00 50.7 -- 80.0 0.0
07/10/2018 09:00 224.37 0.00 50.7 -- 72.3 0.0
07/10/2018 08:00 224.37 0.00 50.1 -- 67.1 0.0
07/10/2018 07:00 224.38 0.00 50.9 -- 64.7 0.0
07/10/2018 06:00 224.37 0.00 50.3 -- 59.8 0.0
07/10/2018 05:00 224.37 0.00 50.5 -- 60.0 0.0
07/10/2018 04:00 224.38 0.00 50.5 -- 61.5 0.0
07/10/2018 03:00 224.37 0.00 50.6 -- 62.7 0.0
07/10/2018 02:00 224.37 0.00 50.7 -- 63.2 0.0
07/10/2018 01:00 224.38 0.00 50.8 -- 64.3 0.0
07/10/2018 00:00 224.38 0.00 50.7 0.05 66.4 0.0
07/09/2018 23:00 224.38 0.00 50.3 -- 68.6 0.0
07/09/2018 22:00 224.38 0.00 50.4 -- 71.9 0.0
07/09/2018 21:00 224.38 0.00 51.0 -- 76.9 0.0
07/09/2018 20:00 224.38 0.00 51.0 -- 87.1 0.0
07/09/2018 19:00 224.38 0.00 50.3 -- 89.7 0.0
07/09/2018 18:00 224.38 0.00 50.9 -- 89.4 0.0
07/09/2018 17:00 224.39 0.00 50.6 -- 88.3 0.0
07/09/2018 16:00 224.37 0.00 50.4 -- 89.1 0.0
07/09/2018 15:00 224.38 0.00 50.6 -- 87.6 0.0
07/09/2018 14:00 224.39 0.00 50.9 -- 87.2 0.0
07/09/2018 13:00 224.38 0.00 50.5 -- 85.8 0.0
07/09/2018 12:00 224.38 0.00 50.8 -- 82.1 0.0
07/09/2018 11:00 224.39 0.00 50.6 -- 78.4 0.0
07/09/2018 10:00 224.39 0.00 50.6 -- 74.8 0.0
07/09/2018 09:00 224.39 0.00 50.6 -- 68.9 0.0
07/09/2018 08:00 224.38 0.00 50.5 -- 63.9 0.0
07/09/2018 07:00 224.38 0.00 50.8 -- 60.8 0.0
07/09/2018 06:00 224.39 0.00 50.6 -- 58.8 0.0
07/09/2018 05:00 224.38 0.00 50.4 -- 57.8 0.0
07/09/2018 04:00 224.39 0.00 50.6 -- 57.5 0.0
07/09/2018 03:00 224.39 0.00 50.6 -- 57.8 0.0
07/09/2018 02:00 224.39 0.00 50.8 -- 59.0 0.0
07/09/2018 01:00 224.39 0.00 50.4 -- 59.6 0.0
07/09/2018 00:00 224.39 0.00 50.7 0.00 61.2 0.0
07/08/2018 23:00 224.40 0.00 50.4 -- 63.8 0.0
07/08/2018 22:00 224.39 0.00 50.3 -- 67.9 0.0
07/08/2018 21:00 224.40 0.00 50.7 -- 73.0 0.0
07/08/2018 20:00 224.40 0.00 50.5 -- 79.2 0.0
07/08/2018 19:00 224.40 0.00 51.1 -- 82.3 0.0
07/08/2018 18:00 224.39 0.00 50.4 -- 84.0 0.0
07/08/2018 17:00 224.40 0.00 50.1 -- 85.0 0.0
07/08/2018 16:00 224.39 0.00 50.7 -- 83.6 0.0
07/08/2018 15:00 224.40 0.00 50.5 -- 81.6 0.0
07/08/2018 14:00 224.40 0.00 50.4 -- 80.3 0.0
07/08/2018 13:00 224.40 0.00 50.6 -- 79.9 0.0
07/08/2018 12:00 224.40 0.00 50.3 -- 79.7 0.0
07/08/2018 11:00 224.40 0.00 50.3 -- 76.4 0.0
07/08/2018 10:00 224.40 0.00 50.6 -- 75.3 0.0
07/08/2018 09:00 224.40 0.00 50.5 -- 64.3 0.0
07/08/2018 08:00 224.40 0.00 50.6 -- 56.2 0.0
07/08/2018 07:00 224.40 0.00 50.6 -- 52.8 0.0
07/08/2018 06:00 224.40 0.00 50.4 -- 52.4 0.0
07/08/2018 05:00 224.40 0.00 50.3 -- 52.9 0.0
07/08/2018 04:00 224.40 0.00 50.4 -- 53.9 0.0
07/08/2018 03:00 224.40 0.00 50.3 -- 54.6 0.0
07/08/2018 02:00 224.40 0.00 50.5 -- 55.3 0.0
07/08/2018 01:00 224.41 0.00 50.4 -- 56.4 0.0
07/08/2018 00:00 224.41 0.00 50.5 0.00 57.9 0.0
07/07/2018 23:00 224.41 0.00 50.5 -- 60.1 0.0
07/07/2018 22:00 224.41 0.00 50.5 -- 63.4 0.0
07/07/2018 21:00 224.41 0.00 50.5 -- 68.1 0.0
07/07/2018 20:00 224.41 0.00 50.6 -- 77.9 0.0
07/07/2018 19:00 224.41 0.00 50.5 -- 79.3 0.0
07/07/2018 18:00 224.41 0.00 50.3 -- 78.0 0.0
07/07/2018 17:00 224.41 0.00 50.3 -- 78.9 0.0
07/07/2018 16:00 224.41 0.00 50.3 -- 76.8 0.0
07/07/2018 15:00 224.41 0.00 50.1 -- 75.5 0.0
07/07/2018 14:00 224.42 0.00 50.4 -- 74.5 0.0
07/07/2018 13:00 224.42 0.00 50.2 -- 71.6 0.0
07/07/2018 12:00 224.42 0.00 50.1 -- 72.0 0.0
07/07/2018 11:00 224.42 0.00 50.5 -- 68.8 0.0
07/07/2018 10:00 224.42 0.00 50.1 -- 65.2 0.0
07/07/2018 09:00 224.42 0.00 50.5 -- 61.4 0.0
07/07/2018 08:00 224.42 0.00 50.7 -- 55.2 0.0
07/07/2018 07:00 224.42 0.00 50.0 -- 52.1 0.0
07/07/2018 06:00 224.42 0.00 49.9 -- 51.8 0.0
07/07/2018 05:00 224.42 0.00 50.2 -- 53.0 0.0
07/07/2018 04:00 224.42 0.00 50.2 -- 53.5 0.0
07/07/2018 03:00 224.42 0.00 50.3 -- 54.3 0.0
07/07/2018 02:00 224.42 0.00 49.7 -- 56.5 0.0
07/07/2018 01:00 224.42 0.00 50.2 -- 60.7 0.0
07/07/2018 00:00 224.43 0.00 50.4 0.00 63.4 0.0
07/06/2018 23:00 224.43 0.00 49.9 -- 64.7 0.0
07/06/2018 22:00 224.43 0.00 49.9 -- 67.1 0.0
07/06/2018 21:00 224.43 0.00 50.1 -- 70.2 0.0
07/06/2018 20:00 224.44 0.00 50.0 -- 73.4 0.0
07/06/2018 19:00 224.46 0.00 50.3 -- 76.7 0.0
07/06/2018 18:00 224.44 0.00 50.0 -- 79.3 0.0
07/06/2018 17:00 224.44 0.00 50.0 -- 82.3 0.0
07/06/2018 16:00 224.42 0.01 50.1 -- 81.7 0.0
07/06/2018 15:00 224.44 0.00 50.1 -- 84.4 0.0
07/06/2018 14:00 224.44 0.00 50.0 -- 80.8 0.0
07/06/2018 13:00 224.45 0.01 50.3 -- 76.7 0.0
07/06/2018 12:00 224.44 0.00 50.0 -- 78.0 0.0
07/06/2018 11:00 224.44 0.00 49.9 -- 77.2 0.0
07/06/2018 10:00 224.45 0.01 50.2 -- 75.8 0.0
07/06/2018 09:00 224.45 0.04 50.0 -- 75.5 0.0
07/06/2018 08:00 224.44 0.00 50.2 -- 77.9 0.0
07/06/2018 07:00 224.44 0.00 50.0 -- 76.0 0.0
07/06/2018 06:00 224.44 0.00 49.9 -- 76.2 0.0
07/06/2018 05:00 224.43 0.00 49.8 -- 76.0 0.0
07/06/2018 04:00 224.44 0.00 49.8 -- 76.4 0.0
07/06/2018 03:00 224.44 0.00 49.8 -- 77.5 0.0
07/06/2018 02:00 224.45 0.00 50.0 -- 78.1 0.0
07/06/2018 01:00 224.44 0.00 50.0 -- 79.2 0.0
07/06/2018 00:00 224.45 0.00 49.9 0.07 79.5 0.0
07/05/2018 23:00 224.44 0.00 49.8 -- 79.0 0.0
07/05/2018 22:00 224.44 0.00 49.7 -- 80.5 0.0
07/05/2018 21:00 224.45 0.00 49.9 -- 84.3 0.0
07/05/2018 20:00 224.45 0.00 50.2 -- 88.7 0.0
07/05/2018 19:00 224.45 0.00 49.9 -- 90.8 0.0
07/05/2018 18:00 224.45 0.00 50.0 -- 91.0 0.0
07/05/2018 17:00 224.44 0.00 49.8 -- 91.8 0.0
07/05/2018 16:00 224.45 0.00 49.7 -- 92.3 0.0
07/05/2018 15:00 224.45 0.00 49.9 -- 93.0 0.0
07/05/2018 14:00 224.46 0.00 49.9 -- 90.2 0.0
07/05/2018 13:00 224.45 0.00 49.7 -- 91.7 0.0
07/05/2018 12:00 224.46 0.00 49.9 -- 89.0 0.0
07/05/2018 11:00 224.45 0.00 49.8 -- 87.1 0.0
07/05/2018 10:00 224.45 0.00 49.7 -- 84.3 0.0
07/05/2018 09:00 224.46 0.00 49.9 -- 74.7 0.0
07/05/2018 08:00 224.46 0.00 49.9 -- 68.2 0.0
07/05/2018 07:00 224.46 0.00 50.0 -- 65.3 0.0
07/05/2018 06:00 224.46 0.00 49.8 -- 65.2 0.0
07/05/2018 05:00 224.46 0.00 49.7 -- 65.6 0.0
07/05/2018 04:00 224.46 0.00 49.7 -- 66.0 0.0
07/05/2018 03:00 224.46 0.00 49.7 -- 66.7 0.0
07/05/2018 02:00 224.46 0.00 49.8 -- 67.6 0.0
07/05/2018 01:00 224.46 0.00 50.1 -- 68.4 0.0
07/05/2018 00:00 224.46 0.00 49.6 0.00 69.4 0.0
07/04/2018 23:00 224.46 0.00 49.9 -- 71.0 0.0
07/04/2018 22:00 224.46 0.00 49.7 -- 73.5 0.0
07/04/2018 21:00 224.46 0.00 49.9 -- 77.6 0.0
07/04/2018 20:00 224.47 0.00 49.8 -- 87.8 0.0
07/04/2018 19:00 224.47 0.00 49.6 -- 91.9 0.0
07/04/2018 18:00 224.47 0.00 49.6 -- 92.9 0.0
07/04/2018 17:00 224.47 0.00 49.9 -- 92.2 0.0
07/04/2018 16:00 224.47 0.00 49.8 -- 93.9 0.0
07/04/2018 15:00 224.47 0.00 49.7 -- 91.8 0.0
07/04/2018 14:00 224.48 0.00 49.4 -- 92.5 0.0
07/04/2018 13:00 224.48 0.00 49.7 -- 92.3 0.0
07/04/2018 12:00 224.47 0.00 49.7 -- 90.7 0.0
07/04/2018 11:00 224.47 -- 49.5 -- 87.7 0.0
07/04/2018 10:00 224.48 -- 49.8 -- 83.9 0.0
07/04/2018 09:00 224.48 0.00 49.6 -- 76.8 0.0
07/04/2018 08:00 224.48 0.00 49.6 -- 67.9 0.0
07/04/2018 07:00 224.48 0.00 49.5 -- 65.0 0.0
07/04/2018 06:00 224.48 0.00 49.7 -- 64.8 0.0
07/04/2018 05:00 224.48 0.00 50.0 -- 65.6 0.0
07/04/2018 04:00 224.48 0.00 49.7 -- 66.3 0.0
07/04/2018 03:00 224.48 0.00 49.5 -- 67.3 0.0
07/04/2018 02:00 224.48 0.00 49.5 -- 68.4 0.0
07/04/2018 01:00 224.49 0.00 49.7 -- 71.0 0.0
07/04/2018 00:00 224.48 0.00 49.6 -- 74.5 0.0
07/03/2018 23:00 224.48 0.00 49.6 -- 75.4 0.0
07/03/2018 22:00 224.49 0.00 49.5 -- 79.7 0.0
07/03/2018 21:00 224.49 0.00 49.6 -- 85.2 0.0
07/03/2018 20:00 224.49 0.00 49.8 -- 92.0 0.0
07/03/2018 19:00 224.49 0.00 49.6 -- 89.2 0.0
07/03/2018 18:00 224.49 0.00 49.6 -- 94.5 0.0
07/03/2018 17:00 224.49 0.00 49.3 -- 90.7 0.0
07/03/2018 16:00 224.49 0.00 49.7 -- 92.5 0.0
07/03/2018 15:00 224.49 0.00 49.6 -- 96.4 0.0
07/03/2018 14:00 224.49 0.00 49.5 -- 94.2 0.0
07/03/2018 13:00 224.50 0.00 49.4 -- 93.1 0.0
07/03/2018 12:00 224.50 0.00 49.5 -- 91.3 0.0
07/03/2018 11:00 224.49 0.00 49.4 -- 86.5 0.0
07/03/2018 10:00 224.50 0.00 49.3 -- 81.4 0.0
07/03/2018 09:00 224.50 0.00 49.6 -- 76.7 0.0
07/03/2018 08:00 224.50 0.00 49.5 -- 70.3 0.0
07/03/2018 07:00 224.50 0.00 49.6 -- 65.8 0.0
07/03/2018 06:00 224.50 0.00 49.4 -- 65.2 0.0
07/03/2018 05:00 224.50 0.00 49.7 -- 65.5 0.0
07/03/2018 04:00 224.51 0.00 49.5 -- 66.0 0.0
07/03/2018 03:00 224.50 0.00 49.3 -- 66.6 0.0
07/03/2018 02:00 224.50 0.00 49.6 -- 66.7 0.0
07/03/2018 01:00 224.51 0.00 49.5 -- 67.2 0.0
07/03/2018 00:00 224.50 0.00 49.4 0.00 68.4 0.0
07/02/2018 23:00 224.51 0.00 49.3 -- 70.1 0.0
07/02/2018 22:00 224.51 0.00 49.5 -- 73.0 0.0
07/02/2018 21:00 224.51 0.00 49.6 -- 75.6 0.0
07/02/2018 20:00 224.51 0.00 49.2 -- 80.1 0.0
07/02/2018 19:00 224.52 0.00 49.5 -- 81.7 0.0
07/02/2018 18:00 224.51 0.00 49.6 -- 81.5 0.0
07/02/2018 17:00 224.52 0.00 49.4 -- 83.0 0.0
07/02/2018 16:00 224.52 0.00 49.5 -- 83.6 0.0
07/02/2018 15:00 224.52 0.00 49.5 -- 84.2 0.0
07/02/2018 14:00 224.52 0.00 49.4 -- 84.9 0.0
07/02/2018 13:00 224.52 0.00 49.4 -- 82.7 0.0
07/02/2018 12:00 224.52 0.00 49.2 -- 80.2 0.0
07/02/2018 11:00 224.52 0.00 49.3 -- 78.5 0.0
07/02/2018 10:00 224.52 0.00 49.5 -- 75.7 0.0
07/02/2018 09:00 224.53 0.00 49.4 -- 73.1 0.0
07/02/2018 08:00 224.53 0.00 49.2 -- 68.9 0.3
07/02/2018 07:00 224.53 0.00 49.3 -- 66.4 1.0
07/02/2018 06:00 224.53 0.00 49.2 -- 66.4 1.0
07/02/2018 05:00 224.53 0.00 49.3 -- 66.9 1.0
07/02/2018 04:00 224.53 0.00 49.2 -- 67.2 1.0
07/02/2018 03:00 224.53 0.00 49.7 -- 68.7 0.8
07/02/2018 02:00 224.54 0.00 49.6 -- 69.7 1.0
07/02/2018 01:00 224.53 0.00 49.6 -- 70.3 1.0
07/02/2018 00:00 224.54 0.00 49.8 0.00 72.2 1.0
07/01/2018 23:00 224.53 0.00 49.5 -- 72.3 1.0
07/01/2018 22:00 224.54 0.00 49.8 -- 74.7 1.0
07/01/2018 21:00 224.54 0.00 50.1 -- 77.6 1.0
07/01/2018 20:00 224.54 0.00 49.5 -- 82.0 1.0
07/01/2018 19:00 224.54 0.00 49.6 -- 84.3 1.0
07/01/2018 18:00 224.55 0.00 49.3 -- 87.3 1.0
07/01/2018 17:00 224.55 0.00 49.5 -- 87.6 1.0
07/01/2018 16:00 224.55 0.00 49.7 -- 89.4 1.0
07/01/2018 15:00 224.55 0.00 49.3 -- 93.8 1.0
07/01/2018 14:00 224.55 0.00 49.4 -- 94.3 1.0
07/01/2018 13:00 224.55 0.00 49.3 -- 90.8 1.0
07/01/2018 12:00 224.55 0.00 49.4 -- 88.0 1.0
07/01/2018 11:00 224.55 0.00 49.5 -- 86.3 1.3
07/01/2018 10:00 224.56 0.00 49.4 -- 83.0 1.5
07/01/2018 09:00 224.55 0.00 49.2 -- 75.4 1.0
07/01/2018 08:00 224.55 0.00 49.3 -- 71.8 1.8
07/01/2018 07:00 224.57 0.00 49.1 -- 71.8 1.8
07/01/2018 06:00 224.56 0.00 49.3 -- 69.0 1.8
07/01/2018 05:00 224.56 0.00 49.8 -- 68.8 1.5
07/01/2018 04:00 224.56 0.00 48.9 -- 69.2 2.0
07/01/2018 03:00 224.56 0.00 49.7 -- 70.0 2.0
07/01/2018 02:00 224.56 0.00 49.2 -- 69.7 2.0
07/01/2018 01:00 224.57 0.00 49.5 -- 70.3 2.0
07/01/2018 00:00 224.56 0.00 49.6 0.00 71.3 2.0
06/30/2018 23:00 224.57 0.00 49.1 -- 72.4 2.0
06/30/2018 22:00 224.57 0.00 49.4 -- 75.1 2.0
06/30/2018 21:00 224.57 0.00 49.5 -- 78.7 2.0
06/30/2018 20:00 224.57 0.00 49.5 -- 83.4 2.0
06/30/2018 19:00 224.57 0.00 49.3 -- 86.5 2.0
06/30/2018 18:00 224.57 0.00 49.3 -- 88.7 2.3
06/30/2018 17:00 224.57 0.00 49.4 -- 88.5 2.0
06/30/2018 16:00 224.58 0.00 49.4 -- 87.9 2.3
06/30/2018 15:00 224.58 0.00 49.5 -- 89.5 2.0
06/30/2018 14:00 224.58 0.00 49.4 -- 88.4 2.5
06/30/2018 13:00 224.58 0.00 49.5 -- 87.2 2.5
06/30/2018 12:00 224.58 0.00 49.4 -- 86.2 2.8
06/30/2018 11:00 224.58 0.00 49.3 -- 84.8 2.3
06/30/2018 10:00 224.58 0.00 49.4 -- 80.2 2.8
06/30/2018 09:00 224.58 0.00 49.3 -- 72.3 3.0
06/30/2018 08:00 224.58 0.00 49.4 -- 66.7 3.0
06/30/2018 07:00 224.58 0.00 49.5 -- 64.5 3.0
06/30/2018 06:00 224.59 0.00 49.2 -- 64.1 3.0
06/30/2018 05:00 224.59 0.00 49.4 -- 63.4 3.0
06/30/2018 04:00 224.58 0.00 49.2 -- 63.8 3.0
06/30/2018 03:00 224.59 0.00 49.4 -- 64.8 3.0
06/30/2018 02:00 224.58 0.00 49.5 -- 65.8 3.0
06/30/2018 01:00 224.59 0.00 49.4 -- 67.2 3.0
06/30/2018 00:00 224.59 0.00 49.6 0.00 69.0 3.0
06/29/2018 23:00 224.59 0.00 49.7 -- 70.6 3.0
06/29/2018 22:00 224.59 0.00 49.4 -- 73.4 3.0
06/29/2018 21:00 224.59 0.00 49.3 -- 79.6 3.0
06/29/2018 20:00 224.59 0.00 49.5 -- 81.4 3.0
06/29/2018 19:00 224.60 0.00 49.2 -- 86.0 3.0
06/29/2018 18:00 224.59 0.00 49.8 -- 87.4 3.0
06/29/2018 17:00 224.59 0.00 49.7 -- 88.0 3.0
06/29/2018 16:00 224.60 0.00 49.7 -- 87.9 3.0
06/29/2018 15:00 224.60 0.00 49.2 -- 86.4 3.0
06/29/2018 14:00 224.59 0.00 49.4 -- 85.5 3.0
06/29/2018 13:00 224.59 0.00 49.2 -- 82.0 3.0
06/29/2018 12:00 224.59 0.00 49.9 -- 79.8 3.0
06/29/2018 11:00 224.59 0.00 49.6 -- 77.7 3.0
06/29/2018 10:00 224.59 0.00 49.4 -- 74.0 3.0
06/29/2018 09:00 224.58 0.00 49.4 -- 70.7 3.0
06/29/2018 08:00 224.59 0.00 49.2 -- 67.9 3.0
06/29/2018 07:00 224.59 0.00 49.7 -- 64.9 3.0
06/29/2018 06:00 224.59 0.00 49.5 -- 63.2 3.0
06/29/2018 05:00 224.59 0.00 49.4 -- 63.0 3.0
06/29/2018 04:00 224.59 0.00 49.2 -- 64.2 3.0
06/29/2018 03:00 224.59 0.00 49.4 -- 65.1 3.0
06/29/2018 02:00 224.59 0.00 49.4 -- 66.5 3.0
06/29/2018 01:00 224.59 0.00 49.6 -- 68.1 3.0
06/29/2018 00:00 224.58 0.00 49.6 0.00 67.9 3.0
06/28/2018 23:00 224.59 0.00 49.4 -- 69.0 3.0
06/28/2018 22:00 224.59 0.00 49.3 -- 68.9 3.0
06/28/2018 21:00 224.59 0.00 49.2 -- 70.6 3.0
06/28/2018 20:00 224.58 0.01 49.5 -- 70.7 2.5
06/28/2018 19:00 224.59 0.06 49.4 -- 70.4 2.8
06/28/2018 18:00 224.57 0.01 49.3 -- 70.1 2.0
06/28/2018 17:00 224.57 0.00 49.2 -- 71.3 2.0
06/28/2018 16:00 224.57 0.00 49.2 -- 70.7 2.0
06/28/2018 15:00 224.57 0.09 49.2 -- 69.5 2.0
06/28/2018 14:00 224.57 0.34 49.4 -- 69.0 1.3
06/28/2018 13:00 224.53 0.03 49.3 -- 69.5 0.3
06/28/2018 12:00 224.52 0.09 49.3 -- 68.3 0.0
06/28/2018 11:00 224.51 0.14 49.3 -- 66.7 0.0
06/28/2018 10:00 224.50 0.16 49.1 -- 65.4 0.0
06/28/2018 09:00 224.49 0.13 49.3 -- 64.1 0.0
06/28/2018 08:00 224.47 0.01 49.2 -- 63.1 0.0
06/28/2018 07:00 224.48 0.02 49.3 -- 62.3 0.0
06/28/2018 06:00 224.47 0.03 49.3 -- 61.7 0.0
06/28/2018 05:00 224.48 0.12 49.3 -- 61.2 0.0
06/28/2018 04:00 224.46 0.14 49.0 -- 60.4 0.0
06/28/2018 03:00 224.44 0.21 49.5 -- 60.3 0.0
06/28/2018 02:00 224.42 0.08 49.4 -- 60.8 0.0
06/28/2018 01:00 224.42 0.05 49.2 -- 61.3 0.0
06/28/2018 00:00 224.41 0.11 49.3 1.72 61.5 0.0
06/27/2018 23:00 224.40 0.01 49.2 -- 64.8 0.0
06/27/2018 22:00 224.40 0.00 49.4 -- 67.1 0.0
06/27/2018 21:00 224.41 0.00 49.2 -- 68.7 0.0
06/27/2018 20:00 224.41 0.00 49.2 -- 70.6 0.0
06/27/2018 19:00 224.41 0.00 48.9 -- 73.2 0.0
06/27/2018 18:00 224.41 0.00 49.3 -- 73.1 0.0
06/27/2018 17:00 224.40 0.00 49.0 -- 75.2 0.0
06/27/2018 16:00 224.41 0.00 49.0 -- 76.0 0.0
06/27/2018 15:00 224.41 0.00 49.3 -- 77.4 0.0
06/27/2018 14:00 224.42 0.00 49.1 -- 74.0 0.0
06/27/2018 13:00 224.41 0.00 49.2 -- 73.5 0.0
06/27/2018 12:00 224.41 0.00 49.1 -- 72.9 0.0
06/27/2018 11:00 224.41 0.00 49.4 -- 72.2 0.0
06/27/2018 10:00 224.41 0.00 49.3 -- 67.1 0.0
06/27/2018 09:00 224.41 0.00 49.3 -- 63.7 0.0
06/27/2018 08:00 224.41 0.00 49.3 -- 59.6 0.0
06/27/2018 07:00 224.41 0.00 49.1 -- 55.3 0.0
06/27/2018 06:00 224.41 0.00 49.1 -- 55.0 0.0
06/27/2018 05:00 224.41 0.00 49.3 -- 54.1 0.0
06/27/2018 04:00 224.41 0.00 49.3 -- 54.1 0.0
06/27/2018 03:00 224.41 0.00 49.1 -- 53.9 0.0
06/27/2018 02:00 224.41 0.00 49.1 -- 53.1 0.0
06/27/2018 01:00 224.41 0.00 49.4 -- 54.5 0.0
06/27/2018 00:00 224.41 0.00 49.4 0.12 55.9 0.0
06/26/2018 23:00 224.41 0.00 49.0 -- 57.7 0.0
06/26/2018 22:00 224.41 0.00 49.5 -- 61.1 0.0
06/26/2018 21:00 224.41 0.00 49.1 -- 66.6 0.0
06/26/2018 20:00 224.41 0.00 49.2 -- 77.6 0.0
06/26/2018 19:00 224.42 0.00 49.3 -- 79.0 0.0
06/26/2018 18:00 224.42 0.00 49.3 -- 78.6 0.0
06/26/2018 17:00 224.42 0.00 49.3 -- 78.9 0.0
06/26/2018 16:00 224.42 0.00 49.3 -- 78.6 0.0
06/26/2018 15:00 224.42 0.00 49.5 -- 76.7 0.0
06/26/2018 14:00 224.41 0.00 49.2 -- 74.5 0.0
06/26/2018 13:00 224.42 0.00 49.1 -- 74.5 0.0
06/26/2018 12:00 224.43 0.00 49.0 -- 74.0 0.0
06/26/2018 11:00 224.42 0.00 49.0 -- 73.9 0.0
06/26/2018 10:00 224.42 0.00 49.1 -- 68.5 0.0
06/26/2018 09:00 224.42 0.00 49.2 -- 60.7 0.0
06/26/2018 08:00 224.42 0.00 49.4 -- 50.5 0.0
06/26/2018 07:00 224.43 0.00 49.1 -- 47.3 0.0
06/26/2018 06:00 224.42 0.00 49.3 -- 48.0 0.0
06/26/2018 05:00 224.42 0.00 49.2 -- 49.6 0.0
06/26/2018 04:00 224.42 0.00 49.4 -- 52.4 0.0
06/26/2018 03:00 224.42 0.00 49.1 -- 53.1 0.0
06/26/2018 02:00 224.42 0.00 49.6 -- 52.2 0.0
06/26/2018 01:00 224.42 0.00 48.9 -- 52.2 0.0
06/26/2018 00:00 224.43 0.00 49.8 0.00 54.6 0.0
06/25/2018 23:00 224.43 0.00 49.1 -- 55.2 0.0
06/25/2018 22:00 224.42 0.00 49.2 -- 56.9 0.0
06/25/2018 21:00 224.43 0.00 48.8 -- 61.9 0.0
06/25/2018 20:00 224.41 0.00 49.5 -- 64.8 0.0
06/25/2018 19:00 224.41 0.00 48.9 -- 69.4 0.0
06/25/2018 18:00 224.43 0.00 49.3 -- 72.4 0.0
06/25/2018 17:00 224.42 0.00 49.4 -- 70.9 0.0
06/25/2018 16:00 224.43 0.00 49.4 -- 71.5 0.0
06/25/2018 15:00 224.42 0.00 49.9 -- 73.0 0.0
06/25/2018 14:00 224.43 0.00 49.0 -- 69.4 0.0
06/25/2018 13:00 224.43 0.00 48.9 -- 66.3 0.0
06/25/2018 12:00 224.43 0.01 49.0 -- 61.2 0.0
06/25/2018 11:00 224.43 0.00 49.0 -- 60.9 0.0
06/25/2018 10:00 224.43 0.00 48.9 -- 65.1 0.0
06/25/2018 09:00 224.42 0.00 49.1 -- 64.0 0.0
06/25/2018 08:00 224.43 0.00 48.8 -- 63.5 0.0
06/25/2018 07:00 224.42 0.00 48.8 -- 61.8 0.0
06/25/2018 06:00 224.43 0.01 48.9 -- 62.5 0.0
06/25/2018 05:00 224.43 0.00 48.8 -- 63.3 0.0
06/25/2018 04:00 224.43 0.01 49.1 -- 63.5 0.0
06/25/2018 03:00 224.42 0.04 48.7 -- 63.4 0.0
06/25/2018 02:00 224.42 0.19 48.7 -- 63.9 0.0
06/25/2018 01:00 224.42 0.15 49.0 -- 64.0 0.0
06/25/2018 00:00 224.40 0.04 48.6 0.41 64.8 0.0
06/24/2018 23:00 224.39 0.02 49.1 -- 65.1 0.0
06/24/2018 22:00 224.38 0.12 49.1 -- 65.5 0.0
06/24/2018 21:00 224.38 0.00 48.9 -- 67.4 0.0
06/24/2018 20:00 224.38 0.00 48.7 -- 69.3 0.0
06/24/2018 19:00 224.38 0.00 48.8 -- 72.5 0.0
06/24/2018 18:00 224.38 0.00 48.6 -- 77.6 0.0
06/24/2018 17:00 224.38 0.00 48.8 -- 77.6 0.0
06/24/2018 16:00 224.38 0.00 48.7 -- 75.7 0.0
06/24/2018 15:00 224.38 0.00 48.8 -- 70.9 0.0
06/24/2018 14:00 224.38 0.00 48.8 -- 71.8 0.0
06/24/2018 13:00 224.38 0.00 48.9 -- 69.7 0.0
06/24/2018 12:00 224.38 0.00 48.9 -- 69.0 0.0
06/24/2018 11:00 224.38 0.00 48.7 -- 64.6 0.0
06/24/2018 10:00 224.38 0.00 48.6 -- 60.4 0.0
06/24/2018 09:00 224.38 0.00 48.8 -- 58.1 0.0
06/24/2018 08:00 224.38 0.00 48.8 -- 55.5 0.0
06/24/2018 07:00 224.38 0.00 48.8 -- 54.1 0.0
06/24/2018 06:00 224.38 0.00 48.8 -- 53.4 0.0
06/24/2018 05:00 224.38 0.00 48.6 -- 53.3 0.0
06/24/2018 04:00 224.38 0.00 48.6 -- 53.9 0.0
06/24/2018 03:00 224.39 0.00 49.0 -- 54.0 0.0
06/24/2018 02:00 224.39 0.00 48.8 -- 54.2 0.0
06/24/2018 01:00 224.38 0.00 49.0 -- 54.1 0.0
06/24/2018 00:00 224.38 0.00 48.6 0.18 54.6 0.0
06/23/2018 23:00 224.38 0.00 48.6 -- 54.8 0.0
06/23/2018 22:00 224.38 0.00 48.9 -- 55.7 0.0
06/23/2018 21:00 224.39 0.00 48.8 -- 56.0 0.0
06/23/2018 20:00 224.38 0.00 48.8 -- 56.3 0.0
06/23/2018 19:00 224.39 0.00 48.5 -- 57.5 0.0
06/23/2018 18:00 224.38 0.00 49.1 -- 58.2 0.0
06/23/2018 17:00 224.39 0.00 48.7 -- 58.2 0.0
06/23/2018 16:00 224.39 0.00 48.7 -- 60.2 0.0
06/23/2018 15:00 224.39 0.03 48.5 -- 60.6 0.0
06/23/2018 14:00 224.38 0.04 48.6 -- 62.1 0.0
06/23/2018 13:00 224.38 0.00 48.6 -- 67.3 0.0
06/23/2018 12:00 224.38 0.00 48.8 -- 64.2 0.0
06/23/2018 11:00 224.38 0.00 48.6 -- 60.9 0.0
06/23/2018 10:00 224.37 0.00 48.6 -- 59.8 0.0
06/23/2018 09:00 224.38 0.00 48.8 -- 57.3 0.0
06/23/2018 08:00 224.38 0.00 48.5 -- 55.7 0.0
06/23/2018 07:00 224.38 0.00 48.6 -- 54.3 0.0
06/23/2018 06:00 224.38 0.00 48.6 -- 54.1 0.0
06/23/2018 05:00 224.38 0.00 48.6 -- 53.7 0.0
06/23/2018 04:00 224.38 0.00 48.5 -- 53.6 0.0
06/23/2018 03:00 224.38 0.00 48.5 -- 53.6 0.0
06/23/2018 02:00 224.38 0.00 48.6 -- 53.7 0.0
06/23/2018 01:00 224.38 0.00 48.6 -- 54.3 0.0
06/23/2018 00:00 224.38 0.00 48.6 0.07 56.5 0.0
06/22/2018 23:00 224.38 0.00 48.5 -- 58.4 0.0
06/22/2018 22:00 224.38 0.00 48.4 -- 60.7 0.0
06/22/2018 21:00 224.39 0.00 48.8 -- 64.7 0.0
06/22/2018 20:00 224.38 0.00 48.4 -- 67.1 0.0
06/22/2018 19:00 224.39 0.00 48.8 -- 69.4 0.0
06/22/2018 18:00 224.39 0.00 48.5 -- 71.8 0.0
06/22/2018 17:00 224.39 0.00 48.5 -- 74.1 0.0
06/22/2018 16:00 224.39 0.00 48.7 -- 73.0 0.0
06/22/2018 15:00 224.39 0.00 48.9 -- 73.8 0.0
06/22/2018 14:00 224.39 0.00 48.7 -- 73.7 0.0
06/22/2018 13:00 224.39 0.00 48.6 -- 71.2 0.0
06/22/2018 12:00 224.39 0.00 48.5 -- 71.7 0.0
06/22/2018 11:00 224.39 0.00 48.4 -- 66.6 0.0
06/22/2018 10:00 224.39 0.00 48.4 -- 63.9 0.0
06/22/2018 09:00 224.39 0.00 48.5 -- 61.0 0.0
06/22/2018 08:00 224.40 0.00 48.6 -- 56.3 0.0
06/22/2018 07:00 224.39 0.00 48.6 -- 49.6 0.0
06/22/2018 06:00 224.39 0.00 48.5 -- 49.3 0.0
06/22/2018 05:00 224.39 0.00 48.7 -- 50.3 0.0
06/22/2018 04:00 224.39 0.00 48.9 -- 51.8 0.0
06/22/2018 03:00 224.39 0.00 48.9 -- 52.7 0.0
06/22/2018 02:00 224.39 0.00 48.4 -- 55.3 0.0
06/22/2018 01:00 224.39 0.00 48.9 -- 58.1 0.0
06/22/2018 00:00 224.40 0.00 48.7 0.00 57.1 0.0
06/21/2018 23:00 224.40 0.00 48.9 -- 59.6 0.0
06/21/2018 22:00 224.40 0.00 49.4 -- 62.0 0.0
06/21/2018 21:00 224.40 0.00 48.6 -- 68.5 0.0
06/21/2018 20:00 224.40 0.00 49.0 -- 73.3 0.0
06/21/2018 19:00 224.40 0.00 48.6 -- 76.5 0.0
06/21/2018 18:00 224.39 0.00 48.8 -- 79.1 0.0
06/21/2018 17:00 224.41 0.00 48.8 -- 78.4 0.0
06/21/2018 16:00 224.40 0.00 48.7 -- 77.3 0.0
06/21/2018 15:00 224.40 0.00 48.7 -- 74.3 0.0
06/21/2018 14:00 224.40 0.00 48.7 -- 72.9 0.0
06/21/2018 13:00 224.40 0.00 48.6 -- 72.1 0.0
06/21/2018 12:00 224.40 0.00 48.6 -- 72.8 0.0
06/21/2018 11:00 224.40 0.00 48.8 -- 71.7 0.0
06/21/2018 10:00 224.41 0.00 48.7 -- 70.5 0.0
06/21/2018 09:00 224.40 0.00 49.0 -- 68.3 0.0
06/21/2018 08:00 224.40 0.00 48.8 -- 62.2 0.0
06/21/2018 07:00 224.40 0.00 48.6 -- 59.4 0.0
06/21/2018 06:00 224.40 0.00 48.7 -- 58.8 0.0
06/21/2018 05:00 224.40 0.00 48.6 -- 59.3 0.0
06/21/2018 04:00 224.40 0.00 48.9 -- 58.9 0.0
06/21/2018 03:00 224.41 0.00 48.7 -- 58.8 0.0
06/21/2018 02:00 224.40 0.00 48.8 -- 60.0 0.0
06/21/2018 01:00 224.40 0.00 48.6 -- 61.3 0.0
06/21/2018 00:00 224.41 0.00 48.7 0.00 62.1 0.0
06/20/2018 23:00 224.40 0.00 48.7 -- 62.1 0.0
06/20/2018 22:00 224.40 0.00 48.7 -- 65.4 0.0
06/20/2018 21:00 224.41 0.00 49.1 -- 72.3 0.0
06/20/2018 20:00 224.41 0.00 48.8 -- 76.1 0.0
06/20/2018 19:00 224.41 0.00 48.9 -- 76.8 0.0
06/20/2018 18:00 224.41 0.00 49.3 -- 78.3 0.0
06/20/2018 17:00 224.40 0.00 48.8 -- 80.4 0.0
06/20/2018 16:00 224.41 0.00 49.0 -- 78.7 0.0
06/20/2018 15:00 224.42 0.00 49.2 -- 79.2 0.0
06/20/2018 14:00 224.40 0.00 49.1 -- 79.2 0.0
06/20/2018 13:00 224.42 0.00 49.0 -- 76.7 0.0
06/20/2018 12:00 224.41 0.00 48.7 -- 74.7 0.0
06/20/2018 11:00 224.41 0.00 48.6 -- 72.0 0.0
06/20/2018 10:00 224.41 0.00 48.8 -- 71.4 0.0
06/20/2018 09:00 224.41 0.00 48.9 -- 63.6 0.0
06/20/2018 08:00 224.41 0.00 48.9 -- 56.3 0.0
06/20/2018 07:00 224.41 0.00 48.8 -- 51.0 0.0
06/20/2018 06:00 224.41 0.00 48.8 -- 50.0 0.0
06/20/2018 05:00 224.41 0.00 48.8 -- 50.9 0.0
06/20/2018 04:00 224.41 0.00 49.2 -- 52.1 0.0
06/20/2018 03:00 224.41 0.00 48.7 -- 53.9 0.0
06/20/2018 02:00 224.41 0.00 49.0 -- 56.2 0.0
06/20/2018 01:00 224.42 0.00 48.6 -- 60.4 0.0
06/20/2018 00:00 224.41 0.00 48.9 0.00 61.0 0.0
06/19/2018 23:00 224.42 0.00 48.7 -- 62.4 0.0
06/19/2018 22:00 224.42 0.00 48.4 -- 68.2 0.0
06/19/2018 21:00 224.41 0.00 48.8 -- 70.7 0.0
06/19/2018 20:00 224.41 0.00 49.0 -- 76.3 0.0
06/19/2018 19:00 224.42 0.00 48.4 -- 77.8 0.0
06/19/2018 18:00 224.41 0.00 49.1 -- 78.4 0.0
06/19/2018 17:00 224.41 0.00 48.5 -- 78.3 0.0
06/19/2018 16:00 224.41 0.00 48.5 -- 78.0 0.0
06/19/2018 15:00 224.42 0.00 48.6 -- 76.8 0.0
06/19/2018 14:00 224.41 0.00 48.5 -- 75.7 0.0
06/19/2018 13:00 224.41 0.00 48.2 -- 74.0 0.0
06/19/2018 12:00 224.40 0.00 48.5 -- 73.6 0.0
06/19/2018 11:00 224.45 0.00 48.4 -- 72.4 0.0
06/19/2018 10:00 224.44 0.00 48.3 -- 71.6 0.0
06/19/2018 09:00 224.43 0.00 48.2 -- 69.6 0.0
06/19/2018 08:00 224.43 0.00 48.2 -- 69.3 0.0
06/19/2018 07:00 224.41 0.00 48.4 -- 70.0 0.0
06/19/2018 06:00 224.42 0.00 48.5 -- 70.9 0.0
06/19/2018 05:00 224.45 0.01 48.4 -- 72.8 0.0
06/19/2018 04:00 224.42 0.00 48.3 -- 70.9 0.0
06/19/2018 03:00 224.43 0.00 48.3 -- 72.1 0.0
06/19/2018 02:00 224.43 0.00 48.4 -- 72.0 0.0
06/19/2018 01:00 224.42 0.00 48.3 -- 72.5 0.0
06/19/2018 00:00 224.43 0.00 48.1 0.01 72.9 0.0
06/18/2018 23:00 224.42 0.00 48.3 -- 72.5 0.0
06/18/2018 22:00 224.43 0.00 48.5 -- 71.1 0.0
06/18/2018 21:00 224.42 0.00 48.0 -- 70.8 0.0
06/18/2018 20:00 224.43 0.09 48.1 -- 72.3 0.0
06/18/2018 19:00 224.42 0.04 48.1 -- 77.5 0.0
06/18/2018 18:00 224.42 0.00 48.3 -- 84.8 0.0
06/18/2018 17:00 224.41 0.00 48.1 -- 87.3 0.0
06/18/2018 16:00 224.41 0.00 48.1 -- 88.0 0.0
06/18/2018 15:00 224.42 0.00 48.1 -- 84.8 0.0
06/18/2018 14:00 224.42 0.00 48.0 -- 85.2 0.0
06/18/2018 13:00 224.39 0.00 48.3 -- 85.3 0.0
06/18/2018 12:00 224.41 0.00 48.0 -- 82.9 0.0
06/18/2018 11:00 224.41 0.00 48.1 -- 78.4 0.0
06/18/2018 10:00 224.41 0.00 48.0 -- 74.4 0.0
06/18/2018 09:00 224.41 0.00 47.9 -- 65.5 0.0
06/18/2018 08:00 224.41 0.00 48.2 -- 60.4 0.0
06/18/2018 07:00 224.42 0.00 48.0 -- 57.5 0.0
06/18/2018 06:00 224.41 0.00 48.1 -- 56.1 0.0
06/18/2018 05:00 224.42 0.00 48.0 -- 55.4 0.0
06/18/2018 04:00 224.41 0.00 47.9 -- 54.7 0.0
06/18/2018 03:00 224.41 0.00 47.9 -- 55.0 0.0
06/18/2018 02:00 224.41 0.00 48.0 -- 55.6 0.0
06/18/2018 01:00 224.41 0.00 48.0 -- 56.5 0.0
06/18/2018 00:00 224.42 0.00 48.1 0.13 58.7 0.0
06/17/2018 23:00 224.42 0.00 48.1 -- 60.9 0.0
06/17/2018 22:00 224.42 0.00 47.8 -- 62.7 0.0
06/17/2018 21:00 224.41 0.00 47.9 -- 66.2 0.0
06/17/2018 20:00 224.41 0.00 48.0 -- 67.9 0.0
06/17/2018 19:00 224.42 0.00 48.0 -- 71.7 0.0
06/17/2018 18:00 224.41 0.00 47.9 -- 75.1 0.0
06/17/2018 17:00 224.42 0.00 48.1 -- 81.7 0.0
06/17/2018 16:00 224.42 0.00 48.0 -- 83.7 0.0
06/17/2018 15:00 224.42 0.00 47.8 -- 83.4 0.0
06/17/2018 14:00 224.42 0.00 47.8 -- 85.1 0.0
06/17/2018 13:00 224.42 0.00 47.9 -- 84.7 0.0
06/17/2018 12:00 224.42 0.00 47.9 -- 84.0 0.0
06/17/2018 11:00 224.42 0.00 47.9 -- 84.4 0.0
06/17/2018 10:00 224.42 0.00 48.0 -- 76.1 0.0
06/17/2018 09:00 224.42 0.00 48.0 -- 65.8 0.0
06/17/2018 08:00 224.42 0.00 48.0 -- 57.8 0.0
06/17/2018 07:00 224.42 0.00 48.0 -- 52.1 0.0
06/17/2018 06:00 224.42 0.00 47.9 -- 51.8 0.0
06/17/2018 05:00 224.42 0.00 47.9 -- 52.5 0.0
06/17/2018 04:00 224.42 0.00 47.9 -- 53.4 0.0
06/17/2018 03:00 224.42 0.00 47.8 -- 54.8 0.0
06/17/2018 02:00 224.42 0.00 48.1 -- 55.9 0.0
06/17/2018 01:00 224.42 0.00 48.1 -- 57.2 0.0
06/17/2018 00:00 224.42 0.00 47.8 0.00 58.9 0.0
06/16/2018 23:00 224.43 0.00 48.0 -- 61.2 0.0
06/16/2018 22:00 224.42 0.00 48.1 -- 64.8 0.0
06/16/2018 21:00 224.42 0.00 48.0 -- 70.8 0.0
06/16/2018 20:00 224.42 0.00 47.8 -- 81.7 0.0
06/16/2018 19:00 224.42 0.00 47.9 -- 83.3 0.0
06/16/2018 18:00 224.42 0.00 48.1 -- 81.5 0.0
06/16/2018 17:00 224.44 0.00 48.0 -- 80.3 0.0
06/16/2018 16:00 224.42 0.00 48.1 -- 80.6 0.0
06/16/2018 15:00 224.41 0.00 48.1 -- 80.2 0.0
06/16/2018 14:00 224.43 0.00 47.8 -- 78.3 0.0
06/16/2018 13:00 224.42 0.00 47.9 -- 77.5 0.0
06/16/2018 12:00 224.43 0.00 48.1 -- 74.7 0.0
06/16/2018 11:00 224.43 0.00 48.1 -- 72.2 0.0
06/16/2018 10:00 224.44 0.00 48.1 -- 69.6 0.0
06/16/2018 09:00 224.43 0.00 48.0 -- 66.4 0.0
06/16/2018 08:00 224.42 0.00 48.1 -- 60.2 0.0
06/16/2018 07:00 224.43 0.00 47.8 -- 55.9 0.0
06/16/2018 06:00 224.42 0.00 48.1 -- 50.5 0.0
06/16/2018 05:00 224.43 0.00 48.2 -- 50.8 0.0
06/16/2018 04:00 224.43 0.00 47.9 -- 50.4 0.0
06/16/2018 03:00 224.43 0.00 47.9 -- 50.1 0.0
06/16/2018 02:00 224.43 0.00 48.0 -- 51.0 0.0
06/16/2018 01:00 224.43 0.00 48.1 -- 52.0 0.0
06/16/2018 00:00 224.43 0.00 47.8 0.00 53.4 0.0
06/15/2018 23:00 224.43 0.00 48.0 -- 55.7 0.0
06/15/2018 22:00 224.43 0.00 47.8 -- 57.8 0.0
06/15/2018 21:00 224.43 0.00 47.9 -- 61.0 0.0
06/15/2018 20:00 224.43 0.00 47.9 -- 70.3 0.0
06/15/2018 19:00 224.43 0.00 47.9 -- 70.3 0.0
06/15/2018 18:00 224.43 0.00 47.9 -- 68.5 0.0
06/15/2018 17:00 224.43 0.00 48.0 -- 67.1 0.0
06/15/2018 16:00 224.43 0.00 47.8 -- 65.1 0.0
06/15/2018 15:00 224.43 0.00 47.9 -- 60.0 0.0
06/15/2018 14:00 224.43 0.00 47.9 -- 57.1 0.0
06/15/2018 13:00 224.43 0.00 47.7 -- 55.5 0.0
06/15/2018 12:00 224.43 0.01 47.7 -- 55.5 0.0
06/15/2018 11:00 224.43 0.03 48.2 -- 54.4 0.0
06/15/2018 10:00 224.43 0.03 48.0 -- 53.3 0.0
06/15/2018 09:00 224.43 0.01 47.8 -- 52.3 0.0
06/15/2018 08:00 224.43 0.01 48.0 -- 52.0 0.0
06/15/2018 07:00 224.42 0.00 48.2 -- 51.5 0.0
06/15/2018 06:00 224.43 0.00 48.1 -- 53.4 0.0
06/15/2018 05:00 224.43 0.00 48.5 -- 53.7 0.0
06/15/2018 04:00 224.43 0.01 47.9 -- 53.6 0.0
06/15/2018 03:00 224.43 0.00 47.9 -- 54.7 0.0
06/15/2018 02:00 224.43 0.00 47.7 -- 55.3 0.0
06/15/2018 01:00 224.42 0.00 48.0 -- 56.2 0.0
06/15/2018 00:00 224.42 0.00 48.4 0.10 58.4 0.0
06/14/2018 23:00 224.43 0.00 47.8 -- 64.1 0.0
06/14/2018 22:00 224.43 0.00 48.2 -- 63.7 0.0
06/14/2018 21:00 224.42 0.00 48.0 -- 65.2 0.0
06/14/2018 20:00 224.42 0.00 48.1 -- 66.5 0.0
06/14/2018 19:00 224.43 0.00 48.2 -- 67.8 0.0
06/14/2018 18:00 224.42 0.00 47.9 -- 69.1 0.0
06/14/2018 17:00 224.41 0.00 47.9 -- 70.0 0.0
06/14/2018 16:00 224.45 0.00 48.1 -- 71.7 0.0
06/14/2018 15:00 224.43 0.00 48.1 -- 70.5 0.0
06/14/2018 14:00 224.43 0.00 47.7 -- 70.8 0.0
06/14/2018 13:00 224.43 0.00 47.9 -- 75.9 0.0
06/14/2018 12:00 224.43 0.00 47.8 -- 71.6 0.0
06/14/2018 11:00 224.43 0.00 48.0 -- 69.7 0.0
06/14/2018 10:00 224.45 0.00 47.6 -- 69.9 0.0
06/14/2018 09:00 224.43 0.00 47.8 -- 68.0 0.0
06/14/2018 08:00 224.45 0.00 47.7 -- 64.5 0.0
06/14/2018 07:00 224.43 0.00 47.8 -- 61.3 0.0
06/14/2018 06:00 224.44 0.00 47.7 -- 61.6 0.0
06/14/2018 05:00 224.44 0.00 47.7 -- 63.2 0.0
06/14/2018 04:00 224.43 0.00 47.8 -- 64.0 0.0
06/14/2018 03:00 224.43 0.00 47.7 -- 65.5 0.0
06/14/2018 02:00 224.44 0.00 47.8 -- 65.7 0.0
06/14/2018 01:00 224.43 0.00 47.9 -- 66.4 0.0
06/14/2018 00:00 224.44 0.00 47.9 0.00 66.5 0.0
06/13/2018 23:00 224.43 0.00 48.0 -- 66.3 0.0
06/13/2018 22:00 224.43 0.00 47.8 -- 67.8 0.0
06/13/2018 21:00 224.43 0.00 47.8 -- 69.0 0.0
06/13/2018 20:00 224.43 0.00 48.0 -- 69.5 0.0
06/13/2018 19:00 224.43 0.00 47.8 -- 70.6 0.0
06/13/2018 18:00 224.43 0.00 47.8 -- 71.0 0.0
06/13/2018 17:00 224.43 0.00 47.7 -- 68.5 0.0
06/13/2018 16:00 224.43 0.00 47.8 -- 70.5 0.0
06/13/2018 15:00 224.44 0.01 47.6 -- 69.6 0.0
06/13/2018 14:00 224.45 0.00 47.8 -- 71.2 0.0
06/13/2018 13:00 224.43 0.00 47.6 -- 77.0 0.0
06/13/2018 12:00 224.43 0.00 47.6 -- 76.3 0.0
06/13/2018 11:00 224.43 0.00 48.2 -- 73.9 0.0
06/13/2018 10:00 224.43 0.00 48.2 -- 68.9 0.0
06/13/2018 09:00 224.43 0.00 47.9 -- 63.7 0.0
06/13/2018 08:00 224.43 0.00 47.9 -- 58.8 0.0
06/13/2018 07:00 224.43 0.00 48.0 -- 57.5 0.0
06/13/2018 06:00 224.43 0.00 48.0 -- 57.9 0.0
06/13/2018 05:00 224.44 0.00 47.9 -- 58.5 0.0
06/13/2018 04:00 224.43 0.00 48.1 -- 61.1 0.0
06/13/2018 03:00 224.44 0.00 47.9 -- 62.6 0.0
06/13/2018 02:00 224.44 0.00 48.0 -- 63.7 0.0
06/13/2018 01:00 224.45 0.00 47.9 -- 65.3 0.0
06/13/2018 00:00 224.44 0.00 47.8 0.01 67.1 0.0
06/12/2018 23:00 224.43 0.00 47.9 -- 69.2 0.0
06/12/2018 22:00 224.44 0.00 47.8 -- 71.0 0.0
06/12/2018 21:00 224.44 0.00 47.9 -- 73.8 0.0
06/12/2018 20:00 224.44 0.00 47.8 -- 76.9 0.0
06/12/2018 19:00 224.42 0.00 47.9 -- 79.1 0.0
06/12/2018 18:00 224.44 0.00 47.6 -- 81.1 0.0
06/12/2018 17:00 224.43 0.00 47.7 -- 79.6 0.0
06/12/2018 16:00 224.44 0.00 47.9 -- 80.2 0.0
06/12/2018 15:00 224.43 0.00 48.0 -- 79.3 0.0
06/12/2018 14:00 224.45 0.00 47.8 -- 77.9 0.0
06/12/2018 13:00 224.44 0.00 47.7 -- 75.6 0.0
06/12/2018 12:00 224.44 0.00 47.9 -- 73.0 0.0
06/12/2018 11:00 224.45 0.00 47.7 -- 67.9 0.0
06/12/2018 10:00 224.45 0.00 47.8 -- 65.2 0.0
06/12/2018 09:00 224.44 0.00 48.0 -- 59.6 0.0
06/12/2018 08:00 224.45 0.00 47.7 -- 54.3 0.0
06/12/2018 07:00 224.45 0.00 47.7 -- 51.3 0.0
06/12/2018 06:00 224.45 0.00 47.8 -- 50.9 0.0
06/12/2018 05:00 224.45 0.00 47.8 -- 51.0 0.0
06/12/2018 04:00 224.45 0.00 47.7 -- 51.1 0.0
06/12/2018 03:00 224.45 0.00 47.7 -- 47.5 0.0
06/12/2018 02:00 224.45 0.00 47.9 -- 48.0 0.0
06/12/2018 01:00 224.45 0.00 47.9 -- 47.3 0.0
06/12/2018 00:00 224.45 0.00 47.6 0.00 48.8 0.0
06/11/2018 23:00 224.45 0.00 47.7 -- 51.1 0.0
06/11/2018 22:00 224.45 0.00 47.7 -- 53.8 0.0
06/11/2018 21:00 224.45 0.00 47.6 -- 60.0 0.0
06/11/2018 20:00 224.45 0.00 47.7 -- 65.0 0.0
06/11/2018 19:00 224.45 0.00 47.7 -- 66.7 0.0
06/11/2018 18:00 224.46 0.00 47.6 -- 67.0 0.0
06/11/2018 17:00 224.45 0.00 47.7 -- 69.8 0.0
06/11/2018 16:00 224.46 0.00 47.6 -- 67.0 0.0
06/11/2018 15:00 224.45 0.00 48.0 -- 68.4 0.0
06/11/2018 14:00 224.46 0.00 47.7 -- 67.2 0.0
06/11/2018 13:00 224.46 0.00 47.6 -- 65.9 0.0
06/11/2018 12:00 224.47 0.00 47.6 -- 65.2 0.0
06/11/2018 11:00 224.46 0.00 47.6 -- 62.3 0.0
06/11/2018 10:00 224.46 0.00 47.8 -- 60.0 0.0
06/11/2018 09:00 224.46 0.00 47.6 -- 57.4 0.0
06/11/2018 08:00 224.46 0.00 47.6 -- 54.5 0.0
06/11/2018 07:00 224.46 0.00 47.6 -- 52.1 0.0
06/11/2018 06:00 224.46 0.00 47.8 -- 51.7 0.0
06/11/2018 05:00 224.46 0.00 47.9 -- 52.2 0.0
06/11/2018 04:00 224.47 0.00 47.8 -- 50.9 0.0
06/11/2018 03:00 224.47 0.00 47.8 -- 51.2 0.0
06/11/2018 02:00 224.46 0.00 47.6 -- 51.7 0.0
06/11/2018 01:00 224.47 0.00 48.3 -- 54.3 0.0
06/11/2018 00:00 224.47 0.00 47.7 0.00 52.4 0.0
06/10/2018 23:00 224.46 0.00 48.2 -- 54.2 0.0
06/10/2018 22:00 224.47 0.00 48.1 -- 57.6 0.0
06/10/2018 21:00 224.47 0.00 47.8 -- 65.1 0.0
06/10/2018 20:00 224.47 0.00 48.2 -- 69.7 0.0
06/10/2018 19:00 224.47 0.00 47.8 -- 72.7 0.0
06/10/2018 18:00 224.46 0.00 48.0 -- 77.9 0.0
06/10/2018 17:00 224.48 0.00 48.1 -- 75.6 0.0
06/10/2018 16:00 224.47 0.00 48.0 -- 76.3 0.0
06/10/2018 15:00 224.46 0.00 47.8 -- 76.9 0.0
06/10/2018 14:00 224.48 0.00 47.9 -- 72.3 0.0
06/10/2018 13:00 224.47 0.00 47.7 -- 71.5 0.0
06/10/2018 12:00 224.47 0.00 47.7 -- 70.5 0.0
06/10/2018 11:00 224.48 0.00 47.6 -- 67.1 0.0
06/10/2018 10:00 224.47 0.00 47.9 -- 65.0 0.0
06/10/2018 09:00 224.48 0.00 47.9 -- 58.5 0.0
06/10/2018 08:00 224.48 0.00 47.7 -- 52.1 0.0
06/10/2018 07:00 224.48 0.00 47.8 -- 46.9 0.0
06/10/2018 06:00 224.48 0.00 47.6 -- 46.9 0.0
06/10/2018 05:00 224.48 0.00 48.1 -- 47.2 0.0
06/10/2018 04:00 224.48 0.00 47.7 -- 48.0 0.0
06/10/2018 03:00 224.48 0.00 47.7 -- 50.1 0.0
06/10/2018 02:00 224.48 0.00 47.9 -- 52.3 0.0
06/10/2018 01:00 224.48 0.00 47.9 -- 54.1 0.0
06/10/2018 00:00 224.48 0.00 47.8 0.00 55.9 0.0
06/09/2018 23:00 224.48 0.00 47.8 -- 58.4 0.0
06/09/2018 22:00 224.48 0.00 47.8 -- 63.2 0.0
06/09/2018 21:00 224.48 0.00 47.7 -- 69.0 0.0
06/09/2018 20:00 224.49 0.00 48.1 -- 75.8 0.0
06/09/2018 19:00 224.48 0.00 47.9 -- 75.4 0.0
06/09/2018 18:00 224.49 0.00 48.2 -- 77.0 0.0
06/09/2018 17:00 224.50 0.00 47.8 -- 79.1 0.0
06/09/2018 16:00 224.47 0.00 48.1 -- 78.3 0.0
06/09/2018 15:00 224.48 0.00 47.6 -- 76.4 0.0
06/09/2018 14:00 224.48 0.00 47.2 -- 75.9 0.0
06/09/2018 13:00 224.48 0.00 47.5 -- 73.0 0.0
06/09/2018 12:00 224.48 0.00 47.6 -- 72.6 0.0
06/09/2018 11:00 224.50 0.00 47.5 -- 70.9 0.0
06/09/2018 10:00 224.49 0.00 47.6 -- 68.9 0.0
06/09/2018 09:00 224.49 0.00 47.4 -- 63.9 0.0
06/09/2018 08:00 224.50 0.00 47.5 -- 52.0 0.0
06/09/2018 07:00 224.48 0.00 47.4 -- 47.6 0.0
06/09/2018 06:00 224.50 0.00 47.5 -- 47.8 0.0
06/09/2018 05:00 224.49 0.00 47.4 -- 48.7 0.0
06/09/2018 04:00 224.49 0.00 47.6 -- 49.5 0.0
06/09/2018 03:00 224.49 0.00 47.2 -- 51.5 0.0
06/09/2018 02:00 224.50 0.00 47.5 -- 53.0 0.0
06/09/2018 01:00 224.49 0.00 47.4 -- 53.4 0.0
06/09/2018 00:00 224.50 0.00 47.6 0.00 54.1 0.0
06/08/2018 23:00 224.50 0.00 47.5 -- 56.5 0.0
06/08/2018 22:00 224.50 0.00 47.4 -- 60.2 0.0
06/08/2018 21:00 224.50 0.00 47.3 -- 65.8 0.0
06/08/2018 20:00 224.50 0.00 47.4 -- 75.8 0.0
06/08/2018 19:00 224.50 0.00 47.5 -- 76.8 0.0
06/08/2018 18:00 224.50 0.00 47.1 -- 77.0 0.0
06/08/2018 17:00 224.50 0.00 47.8 -- 75.8 0.0
06/08/2018 16:00 224.50 0.00 47.4 -- 76.8 0.0
06/08/2018 15:00 224.49 0.00 47.0 -- 74.9 0.0
06/08/2018 14:00 224.50 0.00 47.1 -- 73.9 0.0
06/08/2018 13:00 224.50 0.00 47.2 -- 74.5 0.0
06/08/2018 12:00 224.50 0.00 47.3 -- 75.3 0.0
06/08/2018 11:00 224.50 0.00 47.2 -- 70.1 0.0
06/08/2018 10:00 224.51 0.00 47.1 -- 66.7 0.0
06/08/2018 09:00 224.51 0.00 47.0 -- 61.7 0.0
06/08/2018 08:00 224.50 0.00 47.1 -- 56.2 0.0
06/08/2018 07:00 224.51 0.00 47.1 -- 51.9 0.0
06/08/2018 06:00 224.51 0.00 47.2 -- 52.0 0.0
06/08/2018 05:00 224.51 0.00 47.3 -- 53.0 0.0
06/08/2018 04:00 224.51 0.00 47.2 -- 54.1 0.0
06/08/2018 03:00 224.51 0.00 47.2 -- 55.5 0.0
06/08/2018 02:00 224.51 0.00 47.2 -- 56.2 0.0
06/08/2018 01:00 224.50 0.00 47.3 -- 56.9 0.0
06/08/2018 00:00 224.51 0.00 47.3 0.00 59.3 0.0
06/07/2018 23:00 224.51 0.00 47.3 -- 60.7 0.0
06/07/2018 22:00 224.51 0.00 47.3 -- 61.2 0.0
06/07/2018 21:00 224.51 0.00 47.3 -- 63.1 0.0
06/07/2018 20:00 224.51 0.00 47.2 -- 67.7 0.0
06/07/2018 19:00 224.51 0.00 47.5 -- 69.6 0.0
06/07/2018 18:00 224.51 0.00 47.5 -- 68.0 0.0
06/07/2018 17:00 224.51 0.00 47.4 -- 66.4 0.0
06/07/2018 16:00 224.51 0.00 47.4 -- 68.7 0.0
06/07/2018 15:00 224.51 0.00 47.3 -- 69.3 0.0
06/07/2018 14:00 224.51 0.00 47.4 -- 67.9 0.0
06/07/2018 13:00 224.51 0.00 47.3 -- 65.4 0.0
06/07/2018 12:00 224.51 0.00 47.4 -- 61.8 0.0
06/07/2018 11:00 224.51 0.00 47.4 -- 57.5 0.0
06/07/2018 10:00 224.51 0.00 47.4 -- 55.2 0.0
06/07/2018 09:00 224.51 0.00 47.2 -- 53.9 0.0
06/07/2018 08:00 224.51 0.00 47.3 -- 50.3 0.0
06/07/2018 07:00 224.51 0.00 47.3 -- 48.1 0.0
06/07/2018 06:00 224.51 0.00 47.1 -- 47.4 0.0
06/07/2018 05:00 224.52 0.00 47.3 -- 47.8 0.0
06/07/2018 04:00 224.52 0.00 47.4 -- 47.6 0.0
06/07/2018 03:00 224.51 0.00 47.3 -- 48.0 0.0
06/07/2018 02:00 224.52 0.00 47.4 -- 49.2 0.0
06/07/2018 01:00 224.52 0.00 47.3 -- 51.3 0.0
06/07/2018 00:00 224.51 0.00 47.3 0.00 52.9 0.0
06/06/2018 23:00 224.52 0.00 47.4 -- 54.4 0.0
06/06/2018 22:00 224.52 0.00 47.3 -- 55.8 0.0
06/06/2018 21:00 224.52 0.00 47.3 -- 59.1 0.0
06/06/2018 20:00 224.52 0.00 47.3 -- 63.9 0.0
06/06/2018 19:00 224.52 0.00 47.3 -- 63.6 0.0
06/06/2018 18:00 224.51 0.00 47.2 -- 66.2 0.0
06/06/2018 17:00 224.51 0.00 47.1 -- 63.6 0.0
06/06/2018 16:00 224.52 0.00 47.2 -- 64.2 0.0
06/06/2018 15:00 224.52 0.00 47.3 -- 65.8 0.0
06/06/2018 14:00 224.52 0.00 47.3 -- 63.9 0.0
06/06/2018 13:00 224.52 0.01 47.3 -- 59.8 0.0
06/06/2018 12:00 224.52 0.00 47.2 -- 59.9 0.0
06/06/2018 11:00 224.52 0.00 47.2 -- 58.1 0.0
06/06/2018 10:00 224.52 0.00 47.2 -- 55.8 0.0
06/06/2018 09:00 224.51 0.00 47.1 -- 52.6 0.0
06/06/2018 08:00 224.52 0.00 47.2 -- 51.1 0.0
06/06/2018 07:00 224.52 0.00 47.2 -- 50.4 0.0
06/06/2018 06:00 224.52 0.01 47.2 -- 50.4 0.0
06/06/2018 05:00 224.52 0.00 47.2 -- 50.5 0.0
06/06/2018 04:00 224.52 0.00 47.1 -- 50.4 0.0
06/06/2018 03:00 224.52 0.00 47.0 -- 50.5 0.0
06/06/2018 02:00 224.52 0.00 47.1 -- 50.4 0.0
06/06/2018 01:00 224.52 0.01 47.1 -- 50.9 0.0
06/06/2018 00:00 224.52 0.00 47.1 0.03 51.0 0.0
06/05/2018 23:00 224.52 0.00 47.3 -- 50.9 0.0
06/05/2018 22:00 224.52 0.00 47.3 -- 51.4 0.0
06/05/2018 21:00 224.52 0.00 47.3 -- 51.9 0.0
06/05/2018 20:00 224.51 0.00 47.3 -- 52.5 0.0
06/05/2018 19:00 224.52 0.04 47.3 -- 52.6 0.0
06/05/2018 18:00 224.51 0.16 47.4 -- 52.8 0.0
06/05/2018 17:00 224.49 0.00 47.6 -- 53.2 0.0
06/05/2018 16:00 224.50 0.10 47.5 -- 53.7 0.0
06/05/2018 15:00 224.49 0.01 47.4 -- 54.4 0.0
06/05/2018 14:00 224.49 0.00 47.4 -- 55.9 0.0
06/05/2018 13:00 224.48 0.00 47.6 -- 56.0 0.0
06/05/2018 12:00 224.48 0.00 47.3 -- 54.5 0.0
06/05/2018 11:00 224.49 0.00 47.3 -- 51.8 0.0
06/05/2018 10:00 224.49 0.00 47.6 -- 49.0 0.0
06/05/2018 09:00 224.49 0.00 47.4 -- 47.5 0.0
06/05/2018 08:00 224.48 0.00 47.4 -- 46.4 0.0
06/05/2018 07:00 224.49 0.00 47.6 -- 45.8 0.0
06/05/2018 06:00 224.49 0.00 47.5 -- 45.4 0.0
06/05/2018 05:00 224.48 0.00 47.4 -- 45.8 0.0
06/05/2018 04:00 224.49 0.00 47.5 -- 46.2 0.0
06/05/2018 03:00 224.48 0.00 47.5 -- 46.5 0.0
06/05/2018 02:00 224.49 0.00 47.5 -- 46.5 0.0
06/05/2018 01:00 224.49 0.00 47.4 -- 47.2 0.0
06/05/2018 00:00 224.48 0.00 47.4 0.31 47.6 0.0
06/04/2018 23:00 224.50 0.00 47.4 -- 48.1 0.0
06/04/2018 22:00 224.48 0.00 47.4 -- 48.3 0.0
06/04/2018 21:00 224.49 0.00 47.3 -- 48.8 0.0
06/04/2018 20:00 224.48 0.00 47.4 -- 49.4 0.0
06/04/2018 19:00 224.49 0.00 47.6 -- 49.8 0.0
06/04/2018 18:00 224.49 0.00 47.4 -- 50.7 0.0
06/04/2018 17:00 224.50 0.01 47.3 -- 50.9 0.0
06/04/2018 16:00 224.49 0.00 47.4 -- 50.9 0.0
06/04/2018 15:00 224.49 0.03 47.5 -- 50.4 0.0
06/04/2018 14:00 224.49 0.00 47.4 -- 50.5 0.0
06/04/2018 13:00 224.48 0.05 47.4 -- 50.0 0.0
06/04/2018 12:00 224.48 0.12 47.3 -- 49.3 0.0
06/04/2018 11:00 224.47 0.22 47.3 -- 48.9 0.0
06/04/2018 10:00 224.45 0.00 47.3 -- 49.0 0.0
06/04/2018 09:00 224.46 0.00 47.5 -- 48.6 0.0
06/04/2018 08:00 224.46 0.05 47.5 -- 48.9 0.0
06/04/2018 07:00 224.45 0.00 47.4 -- 48.3 0.0
06/04/2018 06:00 224.45 0.00 47.3 -- 48.0 0.0
06/04/2018 05:00 224.45 0.00 47.2 -- 47.8 0.0
06/04/2018 04:00 224.45 0.00 47.2 -- 48.4 0.0
06/04/2018 03:00 224.46 0.00 47.2 -- 48.0 0.0
06/04/2018 02:00 224.45 0.00 47.2 -- 47.3 0.0
06/04/2018 01:00 224.45 0.00 47.5 -- 48.0 0.0
06/04/2018 00:00 224.46 0.00 47.4 0.48 48.8 0.0
06/03/2018 23:00 224.45 0.00 47.3 -- 48.3 0.0
06/03/2018 22:00 224.46 0.00 47.5 -- 50.2 0.0
06/03/2018 21:00 224.46 0.00 47.2 -- 53.0 0.0
06/03/2018 20:00 224.46 0.00 47.4 -- 57.3 0.0
06/03/2018 19:00 224.46 0.00 47.2 -- 60.6 0.0
06/03/2018 18:00 224.46 0.00 47.5 -- 60.2 0.0
06/03/2018 17:00 224.47 0.00 47.8 -- 61.4 0.0
06/03/2018 16:00 224.46 0.00 47.4 -- 62.7 0.0
06/03/2018 15:00 224.46 0.00 47.5 -- 62.6 0.0
06/03/2018 14:00 224.46 0.00 47.1 -- 62.6 0.0
06/03/2018 13:00 224.47 0.00 47.2 -- 62.3 0.0
06/03/2018 12:00 224.46 0.00 47.1 -- 60.1 0.0
06/03/2018 11:00 224.47 0.00 47.2 -- 59.3 0.0
06/03/2018 10:00 224.46 0.00 47.3 -- 57.4 0.0
06/03/2018 09:00 224.48 0.00 47.4 -- 56.5 0.0
06/03/2018 08:00 224.47 0.00 47.4 -- 53.3 0.0
06/03/2018 07:00 224.47 0.00 47.4 -- 48.8 0.0
06/03/2018 06:00 224.47 0.00 47.4 -- 49.0 0.0
06/03/2018 05:00 224.47 0.00 47.4 -- 49.7 0.0
06/03/2018 04:00 224.46 0.00 47.3 -- 51.6 0.0
06/03/2018 03:00 224.47 0.00 47.4 -- 53.0 0.0
06/03/2018 02:00 224.47 0.00 47.2 -- 54.7 0.0
06/03/2018 01:00 224.47 0.00 48.3 -- 56.6 0.0
06/03/2018 00:00 224.47 0.00 47.2 0.00 59.0 0.0
06/02/2018 23:00 224.48 0.00 47.5 -- 62.1 0.0
06/02/2018 22:00 224.47 0.00 47.2 -- 65.6 0.0
06/02/2018 21:00 224.47 0.00 47.6 -- 69.1 0.0
06/02/2018 20:00 224.48 0.00 47.3 -- 77.8 0.0
06/02/2018 19:00 224.49 0.00 47.2 -- 82.5 0.0
06/02/2018 18:00 224.50 0.00 47.2 -- 83.5 0.0
06/02/2018 17:00 224.48 0.00 47.2 -- 81.4 0.0
06/02/2018 16:00 224.48 0.00 47.1 -- 80.9 0.0
06/02/2018 15:00 224.48 0.00 47.4 -- 78.9 0.0
06/02/2018 14:00 224.48 0.00 47.1 -- 80.8 0.0
06/02/2018 13:00 224.48 0.00 47.0 -- 82.5 0.0
06/02/2018 12:00 224.48 0.00 47.0 -- 80.9 0.0
06/02/2018 11:00 224.48 0.00 47.1 -- 78.3 0.0
06/02/2018 10:00 224.47 0.00 47.2 -- 76.9 0.0
06/02/2018 09:00 224.48 0.00 47.2 -- 74.8 0.0
06/02/2018 08:00 224.48 0.00 47.1 -- 69.6 0.0
06/02/2018 07:00 224.48 0.00 47.2 -- 65.9 0.0
06/02/2018 06:00 224.48 0.00 47.3 -- 65.5 0.0
06/02/2018 05:00 224.48 0.00 47.1 -- 65.2 0.0
06/02/2018 04:00 224.48 0.00 47.2 -- 65.0 0.0
06/02/2018 03:00 224.48 0.00 47.1 -- 65.6 0.0
06/02/2018 02:00 224.48 0.00 47.0 -- 66.7 0.0
06/02/2018 01:00 224.48 0.00 47.0 -- 67.5 0.0
06/02/2018 00:00 224.48 0.00 47.2 0.00 68.7 0.0
06/01/2018 23:00 224.48 0.00 47.2 -- 70.5 0.0
06/01/2018 22:00 224.48 0.00 47.2 -- 72.1 0.0
06/01/2018 21:00 224.48 0.00 47.1 -- 75.8 0.0
06/01/2018 20:00 224.48 0.00 47.0 -- 79.0 0.0
06/01/2018 19:00 224.48 0.00 47.1 -- 79.3 0.0
06/01/2018 18:00 224.48 0.00 47.1 -- 79.8 0.0
06/01/2018 17:00 224.48 0.00 47.1 -- 77.8 0.0
06/01/2018 16:00 224.48 0.00 47.0 -- 77.3 0.0
06/01/2018 15:00 224.48 0.00 47.1 -- 76.2 0.0
06/01/2018 14:00 224.49 0.00 47.0 -- 75.3 0.0
06/01/2018 13:00 224.48 0.00 47.0 -- 75.6 0.0
06/01/2018 12:00 224.48 0.00 47.0 -- 74.9 0.0
06/01/2018 11:00 224.48 0.00 47.0 -- 74.8 0.0
06/01/2018 10:00 224.48 0.00 46.9 -- 71.8 0.0
06/01/2018 09:00 224.48 0.00 47.2 -- 69.1 0.0
06/01/2018 08:00 224.48 0.00 46.9 -- 68.3 0.0
06/01/2018 07:00 224.48 0.00 47.1 -- 66.5 0.0
06/01/2018 06:00 224.48 0.00 47.2 -- 65.7 0.0
06/01/2018 05:00 224.48 0.00 47.0 -- 66.0 0.0
06/01/2018 04:00 224.48 0.00 46.8 -- 66.8 0.0
06/01/2018 03:00 224.48 0.00 47.0 -- 67.3 0.0
06/01/2018 02:00 224.48 0.00 46.9 -- 68.9 0.0
06/01/2018 01:00 224.49 0.00 46.9 -- 68.3 0.0
06/01/2018 00:00 224.48 0.00 47.1 0.00 69.4 0.0
05/31/2018 23:00 224.48 0.00 47.1 -- 69.8 0.0
05/31/2018 22:00 224.49 0.00 46.9 -- 72.3 0.0
05/31/2018 21:00 224.49 0.00 47.0 -- 76.7 0.0
05/31/2018 20:00 224.49 0.00 46.9 -- 81.3 0.0
05/31/2018 19:00 224.48 0.00 46.8 -- 83.5 0.0
05/31/2018 18:00 224.49 0.00 46.9 -- 84.0 0.0
05/31/2018 17:00 224.49 0.00 46.9 -- 84.2 0.0
05/31/2018 16:00 224.49 0.00 46.8 -- 84.0 0.0
05/31/2018 15:00 224.49 0.00 46.9 -- 83.8 0.0
05/31/2018 14:00 224.50 0.00 47.0 -- 81.2 0.0
05/31/2018 13:00 224.49 0.00 46.9 -- 78.0 0.0
05/31/2018 12:00 224.49 0.00 46.7 -- 73.5 0.0
05/31/2018 11:00 224.50 0.00 46.8 -- 73.0 0.0
05/31/2018 10:00 224.49 0.00 46.8 -- 68.4 0.0
05/31/2018 09:00 224.49 0.00 46.7 -- 61.2 0.0
05/31/2018 08:00 224.50 0.00 46.8 -- 51.5 0.0
05/31/2018 07:00 224.49 0.00 46.7 -- 47.6 0.0
05/31/2018 06:00 224.49 0.00 46.7 -- 47.2 0.0
05/31/2018 05:00 224.49 0.00 46.8 -- 48.0 0.0
05/31/2018 04:00 224.50 0.00 46.8 -- 49.2 0.0
05/31/2018 03:00 224.50 0.00 46.9 -- 50.4 0.0
05/31/2018 02:00 224.50 0.00 46.9 -- 51.3 0.0
05/31/2018 01:00 224.50 0.00 46.8 -- 52.5 0.0
05/31/2018 00:00 224.49 0.00 46.8 0.00 54.5 0.0
05/30/2018 23:00 224.50 0.00 47.0 -- 56.2 0.0
05/30/2018 22:00 224.50 0.00 47.1 -- 57.8 0.0
05/30/2018 21:00 224.50 0.00 46.7 -- 60.6 0.0
05/30/2018 20:00 224.50 0.00 46.9 -- 65.2 0.0
05/30/2018 19:00 224.50 0.00 47.1 -- 67.0 0.0
05/30/2018 18:00 224.50 0.00 47.1 -- 69.8 0.0
05/30/2018 17:00 224.50 0.00 47.0 -- 70.4 0.0
05/30/2018 16:00 224.50 0.00 47.1 -- 71.1 0.0
05/30/2018 15:00 224.50 0.00 46.9 -- 71.7 0.0
05/30/2018 14:00 224.51 0.00 46.7 -- 71.4 0.0
05/30/2018 13:00 224.51 0.00 46.8 -- 71.3 0.0
05/30/2018 12:00 224.51 0.00 46.9 -- 71.0 0.0
05/30/2018 11:00 224.51 0.00 47.0 -- 68.1 0.0
05/30/2018 10:00 224.51 0.00 46.8 -- 64.6 0.0
05/30/2018 09:00 224.51 0.00 46.9 -- 62.3 0.0
05/30/2018 08:00 224.51 0.00 46.9 -- 57.4 0.0
05/30/2018 07:00 224.51 0.00 46.8 -- 52.7 0.0
05/30/2018 06:00 224.51 0.00 46.9 -- 55.0 0.0
05/30/2018 05:00 224.51 0.00 46.8 -- 54.5 0.0
05/30/2018 04:00 224.51 0.00 46.8 -- 54.8 0.0
05/30/2018 03:00 224.51 0.00 47.2 -- 56.9 0.0
05/30/2018 02:00 224.51 0.00 46.8 -- 59.6 0.0
05/30/2018 01:00 224.52 0.00 46.8 -- 61.2 0.0
05/30/2018 00:00 224.51 0.00 47.0 0.00 61.2 0.0
05/29/2018 23:00 224.51 0.00 46.7 -- 64.1 0.0
05/29/2018 22:00 224.51 0.00 46.7 -- 66.0 0.0
05/29/2018 21:00 224.52 0.00 46.9 -- 70.8 0.0
05/29/2018 20:00 224.51 0.00 46.9 -- 84.4 0.0
05/29/2018 19:00 224.51 0.00 46.8 -- 86.2 0.0
05/29/2018 18:00 224.52 0.00 46.7 -- 87.0 0.0
05/29/2018 17:00 224.52 0.00 47.3 -- 84.9 0.0
05/29/2018 16:00 224.51 0.00 47.4 -- 84.9 0.0
05/29/2018 15:00 224.53 0.00 46.9 -- 83.3 0.5
05/29/2018 14:00 224.53 0.00 46.8 -- 82.4 0.0
05/29/2018 13:00 224.51 0.00 47.0 -- 81.4 0.0
05/29/2018 12:00 224.53 0.00 47.2 -- 79.7 0.5
05/29/2018 11:00 224.52 0.00 46.9 -- 77.4 0.0
05/29/2018 10:00 224.52 0.00 46.9 -- 73.2 0.0
05/29/2018 09:00 224.51 0.00 46.8 -- 64.8 0.0
05/29/2018 08:00 224.52 0.00 46.9 -- 56.2 0.0
05/29/2018 07:00 224.52 0.00 46.9 -- 50.7 0.0
05/29/2018 06:00 224.51 0.00 46.8 -- 50.5 0.0
05/29/2018 05:00 224.53 0.00 46.9 -- 49.8 0.5
05/29/2018 04:00 224.52 0.00 46.8 -- 50.6 0.0
05/29/2018 03:00 224.52 0.00 46.8 -- 50.8 0.0
05/29/2018 02:00 224.52 0.00 46.9 -- 51.3 0.0
05/29/2018 01:00 224.52 0.00 46.9 -- 52.1 0.0
05/29/2018 00:00 224.52 0.00 46.9 0.00 53.0 0.0
05/28/2018 23:00 224.52 0.00 46.9 -- 54.0 0.0
05/28/2018 22:00 224.52 0.00 46.7 -- 56.5 0.5
05/28/2018 21:00 224.53 0.00 47.1 -- 58.6 0.3
05/28/2018 20:00 224.52 0.00 46.8 -- 60.8 0.0
05/28/2018 19:00 224.52 0.00 46.9 -- 61.5 0.0
05/28/2018 18:00 224.52 0.00 46.9 -- 60.9 0.0
05/28/2018 17:00 224.52 0.00 47.1 -- 59.0 0.3
05/28/2018 16:00 224.53 0.00 46.9 -- 58.2 0.0
05/28/2018 15:00 224.52 0.00 46.9 -- 56.4 0.0
05/28/2018 14:00 224.53 0.00 47.0 -- 56.2 0.3
05/28/2018 13:00 224.52 0.00 47.0 -- 53.3 0.3
05/28/2018 12:00 224.52 0.00 47.0 -- 51.5 0.0
05/28/2018 11:00 224.53 0.00 46.9 -- 50.0 0.0
05/28/2018 10:00 224.52 0.00 46.9 -- 49.4 0.3
05/28/2018 09:00 224.53 0.00 46.9 -- 48.9 0.5
05/28/2018 08:00 224.52 0.00 46.9 -- 48.4 0.3
05/28/2018 07:00 224.53 0.00 46.8 -- 47.5 0.5
05/28/2018 06:00 224.53 0.00 46.8 -- 47.6 0.8
05/28/2018 05:00 224.53 0.00 46.9 -- 47.4 0.8
05/28/2018 04:00 224.53 0.00 46.9 -- 47.6 0.8
05/28/2018 03:00 224.53 0.02 46.9 -- 47.7 0.3
05/28/2018 02:00 224.52 0.01 46.9 -- 47.7 0.8
05/28/2018 01:00 224.53 0.00 46.8 -- 47.8 0.3
05/28/2018 00:00 224.53 0.00 46.9 0.03 47.6 1.0
05/27/2018 23:00 224.53 0.01 46.8 -- 47.9 1.0
05/27/2018 22:00 224.53 0.00 47.0 -- 49.0 1.0
05/27/2018 21:00 224.53 0.00 46.9 -- 49.6 0.5
05/27/2018 20:00 224.53 0.00 47.1 -- 51.3 1.0
05/27/2018 19:00 224.53 0.00 46.7 -- 51.9 0.5
05/27/2018 18:00 224.53 0.00 46.8 -- 52.8 1.0
05/27/2018 17:00 224.53 0.00 46.9 -- 53.1 0.5
05/27/2018 16:00 224.53 0.00 47.0 -- 53.9 1.0
05/27/2018 15:00 224.53 0.00 46.8 -- 55.5 0.8
05/27/2018 14:00 224.53 0.00 46.7 -- 56.7 1.0
05/27/2018 13:00 224.55 0.00 47.0 -- 57.2 1.0
05/27/2018 12:00 224.53 0.00 46.9 -- 56.9 0.8
05/27/2018 11:00 224.54 0.00 46.9 -- 55.8 1.0
05/27/2018 10:00 224.54 0.00 47.0 -- 55.1 1.0
05/27/2018 09:00 224.53 0.00 47.0 -- 54.0 1.0
05/27/2018 08:00 224.54 0.00 47.0 -- 52.8 1.0
05/27/2018 07:00 224.53 0.00 47.0 -- 52.7 1.0
05/27/2018 06:00 224.55 0.00 47.1 -- 54.2 1.0
05/27/2018 05:00 224.53 0.01 46.8 -- 55.1 1.0
05/27/2018 04:00 224.55 0.06 46.8 -- 55.5 1.0
05/27/2018 03:00 224.53 0.13 47.0 -- 57.8 0.8
05/27/2018 02:00 224.53 0.04 47.1 -- 63.9 0.3
05/27/2018 01:00 224.52 0.08 46.8 -- 63.8 0.0
05/27/2018 00:00 224.50 0.13 47.2 0.33 63.9 0.0
05/26/2018 23:00 224.49 0.00 46.9 -- 64.8 0.0
05/26/2018 22:00 224.49 0.00 46.9 -- 66.2 0.0
05/26/2018 21:00 224.49 0.00 46.8 -- 68.9 0.0
05/26/2018 20:00 224.49 0.04 46.9 -- 68.8 0.0
05/26/2018 19:00 224.49 0.00 47.0 -- 71.3 0.0
05/26/2018 18:00 224.48 0.00 46.9 -- 81.8 0.0
05/26/2018 17:00 224.49 0.00 47.0 -- 80.2 0.0
05/26/2018 16:00 224.49 0.00 47.0 -- 80.5 0.0
05/26/2018 15:00 224.49 0.00 46.9 -- 82.2 0.0
05/26/2018 14:00 224.49 0.00 47.0 -- 82.1 0.0
05/26/2018 13:00 224.49 0.00 47.0 -- 82.8 0.0
05/26/2018 12:00 224.50 0.00 47.0 -- 82.3 0.0
05/26/2018 11:00 224.51 0.00 47.2 -- 78.7 0.0
05/26/2018 10:00 224.48 0.00 47.0 -- 75.4 0.0
05/26/2018 09:00 224.49 0.00 47.1 -- 66.4 0.0
05/26/2018 08:00 224.49 0.00 47.0 -- 62.4 0.0
05/26/2018 07:00 224.49 0.00 47.0 -- 61.0 0.0
05/26/2018 06:00 224.49 0.00 47.1 -- 62.6 0.0
05/26/2018 05:00 224.49 0.00 47.0 -- 61.1 0.0
05/26/2018 04:00 224.49 0.00 47.2 -- 62.3 0.0
05/26/2018 03:00 224.49 0.00 47.1 -- 65.7 0.0
05/26/2018 02:00 224.49 0.00 46.9 -- 65.6 0.0
05/26/2018 01:00 224.49 0.00 47.2 -- 69.0 0.0
05/26/2018 00:00 224.49 0.00 47.3 0.17 75.2 0.0
05/25/2018 23:00 224.50 0.00 47.2 -- 76.8 0.0
05/25/2018 22:00 224.50 0.00 46.8 -- 76.8 0.0
05/25/2018 21:00 224.49 0.00 47.1 -- 77.1 0.0
05/25/2018 20:00 224.50 0.00 47.0 -- 81.2 0.0
05/25/2018 19:00 224.49 0.00 46.7 -- 84.1 0.0
05/25/2018 18:00 224.50 0.00 46.9 -- 83.8 0.0
05/25/2018 17:00 224.48 0.00 47.2 -- 86.0 0.0
05/25/2018 16:00 224.50 0.00 46.8 -- 87.6 0.0
05/25/2018 15:00 224.50 0.00 46.8 -- 86.0 0.0
05/25/2018 14:00 224.50 0.00 46.8 -- 85.6 0.0
05/25/2018 13:00 224.47 0.00 46.9 -- 83.4 0.0
05/25/2018 12:00 224.50 0.00 46.9 -- 79.8 0.0
05/25/2018 11:00 224.51 0.00 46.7 -- 76.0 0.0
05/25/2018 10:00 224.50 0.00 46.8 -- 70.0 0.0
05/25/2018 09:00 224.50 0.00 47.0 -- 64.7 0.0
05/25/2018 08:00 224.49 0.00 46.7 -- 59.4 0.0
05/25/2018 07:00 224.50 0.00 46.7 -- 53.8 0.0
05/25/2018 06:00 224.50 0.00 47.3 -- 53.8 0.0
05/25/2018 05:00 224.50 0.00 47.2 -- 51.9 0.0
05/25/2018 04:00 224.50 0.00 46.8 -- 53.1 0.0
05/25/2018 03:00 224.51 0.00 46.7 -- 53.2 0.0
05/25/2018 02:00 224.50 0.00 46.9 -- 51.4 0.0
05/25/2018 01:00 224.50 0.00 46.9 -- 50.5 0.0
05/25/2018 00:00 224.50 0.00 46.9 0.00 51.6 0.0
05/24/2018 23:00 224.51 0.00 46.7 -- 53.4 0.0
05/24/2018 22:00 224.51 0.00 47.5 -- 56.3 0.0
05/24/2018 21:00 224.51 0.00 46.9 -- 61.4 0.0
05/24/2018 20:00 224.50 0.00 46.4 -- 65.7 0.0
05/24/2018 19:00 224.51 0.00 47.5 -- 69.7 0.0
05/24/2018 18:00 224.52 0.00 46.6 -- 69.7 0.3
05/24/2018 17:00 224.51 0.00 46.5 -- 74.1 0.0
05/24/2018 16:00 224.49 0.00 46.5 -- 73.4 0.0
05/24/2018 15:00 224.52 0.00 46.4 -- 69.6 0.3
05/24/2018 14:00 224.53 0.00 46.5 -- 71.1 0.3
05/24/2018 13:00 224.51 0.00 46.5 -- 67.8 0.0
05/24/2018 12:00 224.52 0.00 46.6 -- 66.6 0.0
05/24/2018 11:00 224.51 0.00 46.7 -- 64.0 0.0
05/24/2018 10:00 224.52 0.00 46.7 -- 60.3 0.0
05/24/2018 09:00 224.51 0.00 46.7 -- 56.4 0.0
05/24/2018 08:00 224.52 0.00 46.7 -- 50.3 0.0
05/24/2018 07:00 224.52 0.00 46.8 -- 47.0 0.0
05/24/2018 06:00 224.52 0.00 46.8 -- 47.5 0.0
05/24/2018 05:00 224.52 0.00 46.9 -- 48.8 0.0
05/24/2018 04:00 224.52 0.00 46.9 -- 50.4 0.0
05/24/2018 03:00 224.52 0.00 46.7 -- 52.6 0.0
05/24/2018 02:00 224.52 0.00 46.8 -- 54.7 0.0
05/24/2018 01:00 224.52 0.00 46.8 -- 56.3 0.0
05/24/2018 00:00 224.52 0.00 46.7 0.00 59.8 0.0
05/23/2018 23:00 224.51 0.00 46.8 -- 63.8 0.0
05/23/2018 22:00 224.52 0.00 46.7 -- 66.8 0.0
05/23/2018 21:00 224.53 0.00 47.0 -- 72.7 0.3
05/23/2018 20:00 224.53 0.00 47.0 -- 75.1 0.5
05/23/2018 19:00 224.52 0.00 46.8 -- 77.7 0.8
05/23/2018 18:00 224.51 0.00 46.6 -- 81.4 0.5
05/23/2018 17:00 224.50 0.00 46.5 -- 81.5 0.0
05/23/2018 16:00 -- -- -- -- 80.0 1.0
05/23/2018 15:00 -- -- -- -- 79.6 0.0
05/23/2018 14:00 -- -- -- -- 78.6 1.0
05/23/2018 13:00 -- -- -- -- 74.6 0.5
05/23/2018 12:00 -- -- -- -- 70.5 1.0
05/23/2018 11:00 -- -- -- -- 66.2 0.8
05/23/2018 10:00 -- -- -- -- 64.0 0.5
05/23/2018 09:00 -- -- -- -- 60.8 1.0
05/23/2018 08:00 -- -- -- -- 54.7 0.3
05/23/2018 07:00 -- -- -- -- 52.6 0.8
05/23/2018 06:00 -- -- -- -- 52.3 1.0
05/23/2018 05:00 -- -- -- -- 52.3 0.8
05/23/2018 04:00 -- -- -- -- 52.7 1.0
05/23/2018 03:00 -- -- -- -- 52.9 1.0
05/23/2018 02:00 -- -- -- -- 52.3 0.3
05/23/2018 01:00 -- -- -- -- 52.3 0.8
05/23/2018 00:00 -- -- -- 0.00 52.7 0.8